<?xml version="1.0" encoding="UTF-8"?>
<gpx creator="Garmin Connect" version="1.1"
  xsi:schemaLocation="http://www.topografix.com/GPX/1/1 http://www.topografix.com/GPX/11.xsd"
  xmlns:ns3="http://www.garmin.com/xmlschemas/TrackPointExtension/v1"
  xmlns="http://www.topografix.com/GPX/1/1"
  xmlns:xsi="http://www.w3.org/2001/XMLSchema-instance" xmlns:ns2="http://www.garmin.com/xmlschemas/GpxExtensions/v3">
  <metadata>
    <name>Percorso Blu</name>
    <link href="connect.garmin.com">
      <text>Garmin Connect</text>
    </link>
    <time>2019-03-22T22:04:16.000Z</time>
  </metadata>
  <trk>
    <name>Percorso Blu</name>
    <trkseg>
      <trkpt lat="42.99477668479085" lon="13.762532137334347">
        <ele>450.20001220703125</ele>
        <time>2019-03-22T22:04:16.000Z</time>
      </trkpt>
      <trkpt lat="42.99478339031339" lon="13.762590810656548">
        <ele>450.6000061035156</ele>
        <time>2019-03-22T22:04:16.001Z</time>
      </trkpt>
      <trkpt lat="42.994793113321066" lon="13.762616124004126">
        <ele>451.0</ele>
        <time>2019-03-22T22:04:16.003Z</time>
      </trkpt>
      <trkpt lat="42.99489847384393" lon="13.762842686846852">
        <ele>455.3999938964844</ele>
        <time>2019-03-22T22:04:16.010Z</time>
      </trkpt>
      <trkpt lat="42.99500375054777" lon="13.763067992404103">
        <ele>460.20001220703125</ele>
        <time>2019-03-22T22:04:16.022Z</time>
      </trkpt>
      <trkpt lat="42.99502738751471" lon="13.763119876384735">
        <ele>461.20001220703125</ele>
        <time>2019-03-22T22:04:16.035Z</time>
      </trkpt>
      <trkpt lat="42.99515688791871" lon="13.763367645442486">
        <ele>463.79998779296875</ele>
        <time>2019-03-22T22:04:16.053Z</time>
      </trkpt>
      <trkpt lat="42.99521044827998" lon="13.763472000136971">
        <ele>463.79998779296875</ele>
        <time>2019-03-22T22:04:16.074Z</time>
      </trkpt>
      <trkpt lat="42.99532016739249" lon="13.763698227703571">
        <ele>464.79998779296875</ele>
        <time>2019-03-22T22:04:16.100Z</time>
      </trkpt>
      <trkpt lat="42.99542368389666" lon="13.763919426128268">
        <ele>465.79998779296875</ele>
        <time>2019-03-22T22:04:16.131Z</time>
      </trkpt>
      <trkpt lat="42.99554388038814" lon="13.764146575704217">
        <ele>466.6000061035156</ele>
        <time>2019-03-22T22:04:16.167Z</time>
      </trkpt>
      <trkpt lat="42.99565996974707" lon="13.764401888474822">
        <ele>467.6000061035156</ele>
        <time>2019-03-22T22:04:16.208Z</time>
      </trkpt>
      <trkpt lat="42.99575703218579" lon="13.764615878462791">
        <ele>468.20001220703125</ele>
        <time>2019-03-22T22:04:16.254Z</time>
      </trkpt>
      <trkpt lat="42.99578234553337" lon="13.764681592583656">
        <ele>468.3999938964844</ele>
        <time>2019-03-22T22:04:16.301Z</time>
      </trkpt>
      <trkpt lat="42.99579977989197" lon="13.76474336721003">
        <ele>468.79998779296875</ele>
        <time>2019-03-22T22:04:16.350Z</time>
      </trkpt>
      <trkpt lat="42.99584235996008" lon="13.764992728829384">
        <ele>470.20001220703125</ele>
        <time>2019-03-22T22:04:16.403Z</time>
      </trkpt>
      <trkpt lat="42.99590254202485" lon="13.765240581706166">
        <ele>470.79998779296875</ele>
        <time>2019-03-22T22:04:16.461Z</time>
      </trkpt>
      <trkpt lat="42.99593087285757" lon="13.765360359102488">
        <ele>469.79998779296875</ele>
        <time>2019-03-22T22:04:16.521Z</time>
      </trkpt>
      <trkpt lat="42.99597906880081" lon="13.765612822026014">
        <ele>467.79998779296875</ele>
        <time>2019-03-22T22:04:16.586Z</time>
      </trkpt>
      <trkpt lat="42.996005387976766" lon="13.765730252489448">
        <ele>467.0</ele>
        <time>2019-03-22T22:04:16.654Z</time>
      </trkpt>
      <trkpt lat="42.99602072685957" lon="13.765791691839695">
        <ele>466.3999938964844</ele>
        <time>2019-03-22T22:04:16.723Z</time>
      </trkpt>
      <trkpt lat="42.996090883389115" lon="13.766039041802287">
        <ele>464.3999938964844</ele>
        <time>2019-03-22T22:04:16.797Z</time>
      </trkpt>
      <trkpt lat="42.99618182703853" lon="13.76628639176488">
        <ele>465.0</ele>
        <time>2019-03-22T22:04:16.876Z</time>
      </trkpt>
      <trkpt lat="42.996280398219824" lon="13.76656492240727">
        <ele>462.6000061035156</ele>
        <time>2019-03-22T22:04:16.961Z</time>
      </trkpt>
      <trkpt lat="42.996361115947366" lon="13.766811769455671">
        <ele>460.0</ele>
        <time>2019-03-22T22:04:17.051Z</time>
      </trkpt>
      <trkpt lat="42.99642322584987" lon="13.767089461907744">
        <ele>458.20001220703125</ele>
        <time>2019-03-22T22:04:17.146Z</time>
      </trkpt>
      <trkpt lat="42.996485168114305" lon="13.76730227842927">
        <ele>457.3999938964844</ele>
        <time>2019-03-22T22:04:17.245Z</time>
      </trkpt>
      <trkpt lat="42.99655482172966" lon="13.767536217346787">
        <ele>456.20001220703125</ele>
        <time>2019-03-22T22:04:17.349Z</time>
      </trkpt>
      <trkpt lat="42.996628331020474" lon="13.767776945605874">
        <ele>453.79998779296875</ele>
        <time>2019-03-22T22:04:17.458Z</time>
      </trkpt>
      <trkpt lat="42.99666730687022" lon="13.76789839938283">
        <ele>453.0</ele>
        <time>2019-03-22T22:04:17.569Z</time>
      </trkpt>
      <trkpt lat="42.99674291163683" lon="13.7681226991117">
        <ele>451.3999938964844</ele>
        <time>2019-03-22T22:04:17.685Z</time>
      </trkpt>
      <trkpt lat="42.99681038595736" lon="13.768350519239902">
        <ele>448.3999938964844</ele>
        <time>2019-03-22T22:04:17.805Z</time>
      </trkpt>
      <trkpt lat="42.99687341786921" lon="13.768563000485301">
        <ele>445.6000061035156</ele>
        <time>2019-03-22T22:04:17.929Z</time>
      </trkpt>
      <trkpt lat="42.99692077562213" lon="13.768671210855246">
        <ele>444.6000061035156</ele>
        <time>2019-03-22T22:04:18.056Z</time>
      </trkpt>
      <trkpt lat="42.997047090902925" lon="13.768814206123352">
        <ele>443.6000061035156</ele>
        <time>2019-03-22T22:04:18.187Z</time>
      </trkpt>
      <trkpt lat="42.9972106218338" lon="13.768901797011495">
        <ele>443.3999938964844</ele>
        <time>2019-03-22T22:04:18.322Z</time>
      </trkpt>
      <trkpt lat="42.99730139784515" lon="13.768882686272264">
        <ele>444.20001220703125</ele>
        <time>2019-03-22T22:04:18.460Z</time>
      </trkpt>
      <trkpt lat="42.99748605117202" lon="13.768883356824517">
        <ele>445.3999938964844</ele>
        <time>2019-03-22T22:04:18.602Z</time>
      </trkpt>
      <trkpt lat="42.997702388092875" lon="13.768912525847554">
        <ele>443.3999938964844</ele>
        <time>2019-03-22T22:04:18.750Z</time>
      </trkpt>
      <trkpt lat="42.997755194082856" lon="13.768931217491627">
        <ele>442.20001220703125</ele>
        <time>2019-03-22T22:04:18.899Z</time>
      </trkpt>
      <trkpt lat="42.99782241694629" lon="13.768964661285281">
        <ele>440.6000061035156</ele>
        <time>2019-03-22T22:04:19.050Z</time>
      </trkpt>
      <trkpt lat="42.99789123237133" lon="13.768928870558739">
        <ele>439.79998779296875</ele>
        <time>2019-03-22T22:04:19.203Z</time>
      </trkpt>
      <trkpt lat="42.99792149104178" lon="13.768891403451562">
        <ele>439.79998779296875</ele>
        <time>2019-03-22T22:04:19.357Z</time>
      </trkpt>
      <trkpt lat="42.99799391068518" lon="13.76875938847661">
        <ele>435.3999938964844</ele>
        <time>2019-03-22T22:04:19.514Z</time>
      </trkpt>
      <trkpt lat="42.99804856069386" lon="13.768601641058922">
        <ele>431.20001220703125</ele>
        <time>2019-03-22T22:04:19.674Z</time>
      </trkpt>
      <trkpt lat="42.99806708469987" lon="13.768435176461935">
        <ele>430.20001220703125</ele>
        <time>2019-03-22T22:04:19.837Z</time>
      </trkpt>
      <trkpt lat="42.99806817434728" lon="13.768235268071294">
        <ele>431.20001220703125</ele>
        <time>2019-03-22T22:04:20.004Z</time>
      </trkpt>
      <trkpt lat="42.99806674942374" lon="13.768030749633908">
        <ele>429.79998779296875</ele>
        <time>2019-03-22T22:04:20.175Z</time>
      </trkpt>
      <trkpt lat="42.99808971583843" lon="13.76774006523192">
        <ele>425.79998779296875</ele>
        <time>2019-03-22T22:04:20.351Z</time>
      </trkpt>
      <trkpt lat="42.99811511300504" lon="13.767553651705384">
        <ele>422.6000061035156</ele>
        <time>2019-03-22T22:04:20.531Z</time>
      </trkpt>
      <trkpt lat="42.99813900142908" lon="13.767266739159822">
        <ele>418.79998779296875</ele>
        <time>2019-03-22T22:04:20.716Z</time>
      </trkpt>
      <trkpt lat="42.998155765235424" lon="13.76715861260891">
        <ele>416.79998779296875</ele>
        <time>2019-03-22T22:04:20.903Z</time>
      </trkpt>
      <trkpt lat="42.99817135557532" lon="13.767046881839633">
        <ele>414.79998779296875</ele>
        <time>2019-03-22T22:04:21.092Z</time>
      </trkpt>
      <trkpt lat="42.99820530228317" lon="13.766776900738478">
        <ele>409.20001220703125</ele>
        <time>2019-03-22T22:04:21.286Z</time>
      </trkpt>
      <trkpt lat="42.99820312298834" lon="13.76664999872446">
        <ele>407.20001220703125</ele>
        <time>2019-03-22T22:04:21.483Z</time>
      </trkpt>
      <trkpt lat="42.99818627536297" lon="13.766551930457354">
        <ele>408.0</ele>
        <time>2019-03-22T22:04:21.682Z</time>
      </trkpt>
      <trkpt lat="42.99811192788184" lon="13.766293013468385">
        <ele>411.0</ele>
        <time>2019-03-22T22:04:21.886Z</time>
      </trkpt>
      <trkpt lat="42.99808720126748" lon="13.766209278255701">
        <ele>412.0</ele>
        <time>2019-03-22T22:04:22.091Z</time>
      </trkpt>
      <trkpt lat="42.998046297580004" lon="13.76591021195054">
        <ele>411.0</ele>
        <time>2019-03-22T22:04:22.302Z</time>
      </trkpt>
      <trkpt lat="42.99803179688752" lon="13.765812898054719">
        <ele>409.6000061035156</ele>
        <time>2019-03-22T22:04:22.515Z</time>
      </trkpt>
      <trkpt lat="42.99801092594862" lon="13.765740226954222">
        <ele>408.79998779296875</ele>
        <time>2019-03-22T22:04:22.729Z</time>
      </trkpt>
      <trkpt lat="42.99794806167483" lon="13.7656360398978">
        <ele>409.0</ele>
        <time>2019-03-22T22:04:22.946Z</time>
      </trkpt>
      <trkpt lat="42.997853849083185" lon="13.765580048784614">
        <ele>411.3999938964844</ele>
        <time>2019-03-22T22:04:23.165Z</time>
      </trkpt>
      <trkpt lat="42.99783071503043" lon="13.765569990500808">
        <ele>412.20001220703125</ele>
        <time>2019-03-22T22:04:23.385Z</time>
      </trkpt>
      <trkpt lat="42.9977822676301" lon="13.765546102076769">
        <ele>413.3999938964844</ele>
        <time>2019-03-22T22:04:23.606Z</time>
      </trkpt>
      <trkpt lat="42.997711692005396" lon="13.765510898083448">
        <ele>415.3999938964844</ele>
        <time>2019-03-22T22:04:23.829Z</time>
      </trkpt>
      <trkpt lat="42.99764488823712" lon="13.765465719625354">
        <ele>416.79998779296875</ele>
        <time>2019-03-22T22:04:24.054Z</time>
      </trkpt>
      <trkpt lat="42.997612450271845" lon="13.765459097921848">
        <ele>418.0</ele>
        <time>2019-03-22T22:04:24.280Z</time>
      </trkpt>
      <trkpt lat="42.99759602174163" lon="13.765449542552233">
        <ele>418.3999938964844</ele>
        <time>2019-03-22T22:04:24.506Z</time>
      </trkpt>
      <trkpt lat="42.997571462765336" lon="13.765378464013338">
        <ele>417.79998779296875</ele>
        <time>2019-03-22T22:04:24.734Z</time>
      </trkpt>
      <trkpt lat="42.997541623190045" lon="13.76535658724606">
        <ele>418.6000061035156</ele>
        <time>2019-03-22T22:04:24.963Z</time>
      </trkpt>
      <trkpt lat="42.997443387284875" lon="13.765274612233043">
        <ele>420.79998779296875</ele>
        <time>2019-03-22T22:04:25.195Z</time>
      </trkpt>
      <trkpt lat="42.99733903259039" lon="13.765185931697488">
        <ele>423.3999938964844</ele>
        <time>2019-03-22T22:04:25.430Z</time>
      </trkpt>
      <trkpt lat="42.99725613556802" lon="13.765095574781299">
        <ele>425.79998779296875</ele>
        <time>2019-03-22T22:04:25.667Z</time>
      </trkpt>
      <trkpt lat="42.99719486385584" lon="13.76501209102571">
        <ele>427.20001220703125</ele>
        <time>2019-03-22T22:04:25.907Z</time>
      </trkpt>
      <trkpt lat="42.99711171537638" lon="13.764877393841743">
        <ele>429.0</ele>
        <time>2019-03-22T22:04:26.150Z</time>
      </trkpt>
      <trkpt lat="42.997061759233475" lon="13.764776811003685">
        <ele>430.0</ele>
        <time>2019-03-22T22:04:26.395Z</time>
      </trkpt>
      <trkpt lat="42.99699864350259" lon="13.764697350561619">
        <ele>431.6000061035156</ele>
        <time>2019-03-22T22:04:26.642Z</time>
      </trkpt>
      <trkpt lat="42.99698146060109" lon="13.76468368805945">
        <ele>432.20001220703125</ele>
        <time>2019-03-22T22:04:26.890Z</time>
      </trkpt>
      <trkpt lat="42.99691105261445" lon="13.764612441882491">
        <ele>434.20001220703125</ele>
        <time>2019-03-22T22:04:27.140Z</time>
      </trkpt>
      <trkpt lat="42.99684810452163" lon="13.76454102806747">
        <ele>435.79998779296875</ele>
        <time>2019-03-22T22:04:27.392Z</time>
      </trkpt>
      <trkpt lat="42.996785156428814" lon="13.764481265097857">
        <ele>437.79998779296875</ele>
        <time>2019-03-22T22:04:27.646Z</time>
      </trkpt>
      <trkpt lat="42.99673402681947" lon="13.764436841011047">
        <ele>439.20001220703125</ele>
        <time>2019-03-22T22:04:27.901Z</time>
      </trkpt>
      <trkpt lat="42.99668180756271" lon="13.764396021142602">
        <ele>440.3999938964844</ele>
        <time>2019-03-22T22:04:28.158Z</time>
      </trkpt>
      <trkpt lat="42.99661785364151" lon="13.764345226809382">
        <ele>441.79998779296875</ele>
        <time>2019-03-22T22:04:28.417Z</time>
      </trkpt>
      <trkpt lat="42.99660067074001" lon="13.764330893754959">
        <ele>442.20001220703125</ele>
        <time>2019-03-22T22:04:28.676Z</time>
      </trkpt>
      <trkpt lat="42.996524311602116" lon="13.76426249742508">
        <ele>444.0</ele>
        <time>2019-03-22T22:04:28.938Z</time>
      </trkpt>
      <trkpt lat="42.9964492097497" lon="13.76419167034328">
        <ele>445.6000061035156</ele>
        <time>2019-03-22T22:04:29.202Z</time>
      </trkpt>
      <trkpt lat="42.99639665521681" lon="13.76413987018168">
        <ele>446.6000061035156</ele>
        <time>2019-03-22T22:04:29.468Z</time>
      </trkpt>
      <trkpt lat="42.996310321614146" lon="13.764065271243453">
        <ele>448.3999938964844</ele>
        <time>2019-03-22T22:04:29.736Z</time>
      </trkpt>
      <trkpt lat="42.996241841465235" lon="13.763978434726596">
        <ele>449.6000061035156</ele>
        <time>2019-03-22T22:04:30.007Z</time>
      </trkpt>
      <trkpt lat="42.996238404884934" lon="13.76396108418703">
        <ele>449.6000061035156</ele>
        <time>2019-03-22T22:04:30.278Z</time>
      </trkpt>
      <trkpt lat="42.99619037657976" lon="13.763886066153646">
        <ele>450.20001220703125</ele>
        <time>2019-03-22T22:04:30.551Z</time>
      </trkpt>
      <trkpt lat="42.99614788033068" lon="13.76378908753395">
        <ele>450.3999938964844</ele>
        <time>2019-03-22T22:04:30.826Z</time>
      </trkpt>
      <trkpt lat="42.99614452756941" lon="13.763770647346973">
        <ele>450.3999938964844</ele>
        <time>2019-03-22T22:04:31.101Z</time>
      </trkpt>
      <trkpt lat="42.99609029665589" lon="13.763632848858833">
        <ele>452.6000061035156</ele>
        <time>2019-03-22T22:04:31.379Z</time>
      </trkpt>
      <trkpt lat="42.99602215178311" lon="13.763524303212762">
        <ele>454.3999938964844</ele>
        <time>2019-03-22T22:04:31.660Z</time>
      </trkpt>
      <trkpt lat="42.99595853313804" lon="13.763386169448495">
        <ele>455.20001220703125</ele>
        <time>2019-03-22T22:04:31.944Z</time>
      </trkpt>
      <trkpt lat="42.99589751288295" lon="13.76330335624516">
        <ele>456.0</ele>
        <time>2019-03-22T22:04:32.230Z</time>
      </trkpt>
      <trkpt lat="42.9958759713918" lon="13.763266056776047">
        <ele>456.0</ele>
        <time>2019-03-22T22:04:32.517Z</time>
      </trkpt>
      <trkpt lat="42.995889717713" lon="13.763220626860857">
        <ele>456.20001220703125</ele>
        <time>2019-03-22T22:04:32.805Z</time>
      </trkpt>
      <trkpt lat="42.99593078903854" lon="13.763200175017118">
        <ele>456.20001220703125</ele>
        <time>2019-03-22T22:04:33.094Z</time>
      </trkpt>
      <trkpt lat="42.99599717371166" lon="13.763215513899922">
        <ele>455.6000061035156</ele>
        <time>2019-03-22T22:04:33.384Z</time>
      </trkpt>
      <trkpt lat="42.99602164886892" lon="13.763226745650172">
        <ele>455.3999938964844</ele>
        <time>2019-03-22T22:04:33.675Z</time>
      </trkpt>
      <trkpt lat="42.99620630219579" lon="13.763303020969033">
        <ele>453.79998779296875</ele>
        <time>2019-03-22T22:04:33.971Z</time>
      </trkpt>
      <trkpt lat="42.99638533964753" lon="13.763404274359345">
        <ele>452.20001220703125</ele>
        <time>2019-03-22T22:04:34.272Z</time>
      </trkpt>
      <trkpt lat="42.99642381258309" lon="13.763456493616104">
        <ele>451.6000061035156</ele>
        <time>2019-03-22T22:04:34.574Z</time>
      </trkpt>
      <trkpt lat="42.996596144512296" lon="13.763654138892889">
        <ele>448.6000061035156</ele>
        <time>2019-03-22T22:04:34.882Z</time>
      </trkpt>
      <trkpt lat="42.99664408899844" lon="13.763703927397728">
        <ele>447.6000061035156</ele>
        <time>2019-03-22T22:04:35.191Z</time>
      </trkpt>
      <trkpt lat="42.99680594354868" lon="13.763850443065166">
        <ele>444.20001220703125</ele>
        <time>2019-03-22T22:04:35.505Z</time>
      </trkpt>
      <trkpt lat="42.99697609618306" lon="13.763955468311906">
        <ele>440.79998779296875</ele>
        <time>2019-03-22T22:04:35.824Z</time>
      </trkpt>
      <trkpt lat="42.99715639092028" lon="13.764065187424421">
        <ele>437.20001220703125</ele>
        <time>2019-03-22T22:04:36.148Z</time>
      </trkpt>
      <trkpt lat="42.9972695466131" lon="13.764126794412732">
        <ele>435.0</ele>
        <time>2019-03-22T22:04:36.475Z</time>
      </trkpt>
      <trkpt lat="42.99733433872461" lon="13.764142887666821">
        <ele>434.0</ele>
        <time>2019-03-22T22:04:36.804Z</time>
      </trkpt>
      <trkpt lat="42.99751530401409" lon="13.764166021719575">
        <ele>434.0</ele>
        <time>2019-03-22T22:04:37.137Z</time>
      </trkpt>
      <trkpt lat="42.997560650110245" lon="13.764151940122247">
        <ele>434.6000061035156</ele>
        <time>2019-03-22T22:04:37.472Z</time>
      </trkpt>
      <trkpt lat="42.997630555182695" lon="13.764074826613069">
        <ele>437.20001220703125</ele>
        <time>2019-03-22T22:04:37.809Z</time>
      </trkpt>
      <trkpt lat="42.99769618548453" lon="13.763996371999383">
        <ele>439.79998779296875</ele>
        <time>2019-03-22T22:04:38.148Z</time>
      </trkpt>
      <trkpt lat="42.99780808389187" lon="13.76389310695231">
        <ele>443.0</ele>
        <time>2019-03-22T22:04:38.490Z</time>
      </trkpt>
      <trkpt lat="42.997972285375" lon="13.763696132227778">
        <ele>447.0</ele>
        <time>2019-03-22T22:04:38.838Z</time>
      </trkpt>
      <trkpt lat="42.998024839907885" lon="13.763615665957332">
        <ele>448.3999938964844</ele>
        <time>2019-03-22T22:04:39.188Z</time>
      </trkpt>
      <trkpt lat="42.99815157428384" lon="13.763433946296573">
        <ele>451.0</ele>
        <time>2019-03-22T22:04:39.543Z</time>
      </trkpt>
      <trkpt lat="42.99820731393993" lon="13.76339178532362">
        <ele>451.3999938964844</ele>
        <time>2019-03-22T22:04:39.899Z</time>
      </trkpt>
      <trkpt lat="42.99830462783575" lon="13.763311821967363">
        <ele>451.20001220703125</ele>
        <time>2019-03-22T22:04:40.258Z</time>
      </trkpt>
      <trkpt lat="42.99833295866847" lon="13.76313772983849">
        <ele>452.3999938964844</ele>
        <time>2019-03-22T22:04:40.620Z</time>
      </trkpt>
      <trkpt lat="42.99833262339234" lon="13.762973779812455">
        <ele>453.79998779296875</ele>
        <time>2019-03-22T22:04:40.985Z</time>
      </trkpt>
      <trkpt lat="42.99833890981972" lon="13.76280203461647">
        <ele>455.3999938964844</ele>
        <time>2019-03-22T22:04:41.354Z</time>
      </trkpt>
      <trkpt lat="42.99833840690553" lon="13.762566922232509">
        <ele>458.0</ele>
        <time>2019-03-22T22:04:41.727Z</time>
      </trkpt>
      <trkpt lat="42.99833740107715" lon="13.762364080175757">
        <ele>460.79998779296875</ele>
        <time>2019-03-22T22:04:42.104Z</time>
      </trkpt>
      <trkpt lat="42.99831158481538" lon="13.76221521757543">
        <ele>463.0</ele>
        <time>2019-03-22T22:04:42.484Z</time>
      </trkpt>
      <trkpt lat="42.998276548460126" lon="13.762050764635205">
        <ele>465.79998779296875</ele>
        <time>2019-03-22T22:04:42.867Z</time>
      </trkpt>
      <trkpt lat="42.998215444386005" lon="13.761882623657584">
        <ele>468.79998779296875</ele>
        <time>2019-03-22T22:04:43.253Z</time>
      </trkpt>
      <trkpt lat="42.998161716386676" lon="13.761749099940062">
        <ele>470.20001220703125</ele>
        <time>2019-03-22T22:04:43.642Z</time>
      </trkpt>
      <trkpt lat="42.99811176024377" lon="13.76167232170701">
        <ele>471.3999938964844</ele>
        <time>2019-03-22T22:04:44.033Z</time>
      </trkpt>
      <trkpt lat="42.998086363077164" lon="13.761630496010184">
        <ele>472.0</ele>
        <time>2019-03-22T22:04:44.425Z</time>
      </trkpt>
      <trkpt lat="42.99804520793259" lon="13.761577187106013">
        <ele>472.79998779296875</ele>
        <time>2019-03-22T22:04:44.818Z</time>
      </trkpt>
      <trkpt lat="42.9979516658932" lon="13.761470820754766">
        <ele>474.6000061035156</ele>
        <time>2019-03-22T22:04:45.214Z</time>
      </trkpt>
      <trkpt lat="42.99793314188719" lon="13.761439388617873">
        <ele>475.0</ele>
        <time>2019-03-22T22:04:45.611Z</time>
      </trkpt>
      <trkpt lat="42.9978842753917" lon="13.761368058621883">
        <ele>476.20001220703125</ele>
        <time>2019-03-22T22:04:46.010Z</time>
      </trkpt>
      <trkpt lat="42.99783641472459" lon="13.761274851858616">
        <ele>477.6000061035156</ele>
        <time>2019-03-22T22:04:46.411Z</time>
      </trkpt>
      <trkpt lat="42.997772796079516" lon="13.761201510205865">
        <ele>479.0</ele>
        <time>2019-03-22T22:04:46.814Z</time>
      </trkpt>
      <trkpt lat="42.99776189960539" lon="13.76113043166697">
        <ele>480.3999938964844</ele>
        <time>2019-03-22T22:04:47.219Z</time>
      </trkpt>
      <trkpt lat="42.997751170769334" lon="13.761109812185168">
        <ele>480.79998779296875</ele>
        <time>2019-03-22T22:04:47.624Z</time>
      </trkpt>
      <trkpt lat="42.99772803671658" lon="13.761064717546105">
        <ele>481.6000061035156</ele>
        <time>2019-03-22T22:04:48.030Z</time>
      </trkpt>
      <trkpt lat="42.99771965481341" lon="13.761039488017559">
        <ele>482.0</ele>
        <time>2019-03-22T22:04:48.437Z</time>
      </trkpt>
      <trkpt lat="42.99773599952459" lon="13.761001015082002">
        <ele>482.6000061035156</ele>
        <time>2019-03-22T22:04:48.844Z</time>
      </trkpt>
      <trkpt lat="42.99777246080339" lon="13.760924655944109">
        <ele>483.79998779296875</ele>
        <time>2019-03-22T22:04:49.253Z</time>
      </trkpt>
      <trkpt lat="42.997857788577676" lon="13.760889871045947">
        <ele>484.3999938964844</ele>
        <time>2019-03-22T22:04:49.664Z</time>
      </trkpt>
      <trkpt lat="42.99794118851423" lon="13.760886015370488">
        <ele>484.3999938964844</ele>
        <time>2019-03-22T22:04:50.077Z</time>
      </trkpt>
      <trkpt lat="42.997944708913565" lon="13.760884758085012">
        <ele>484.3999938964844</ele>
        <time>2019-03-22T22:04:50.490Z</time>
      </trkpt>
      <trkpt lat="42.99795761704445" lon="13.760890876874328">
        <ele>484.3999938964844</ele>
        <time>2019-03-22T22:04:50.904Z</time>
      </trkpt>
      <trkpt lat="42.99805308692157" lon="13.760938066989183">
        <ele>483.6000061035156</ele>
        <time>2019-03-22T22:04:51.320Z</time>
      </trkpt>
      <trkpt lat="42.99817596562207" lon="13.760994309559464">
        <ele>482.79998779296875</ele>
        <time>2019-03-22T22:04:51.740Z</time>
      </trkpt>
      <trkpt lat="42.998276548460126" lon="13.761067148298025">
        <ele>481.6000061035156</ele>
        <time>2019-03-22T22:04:52.163Z</time>
      </trkpt>
      <trkpt lat="42.99835542216897" lon="13.761104950681329">
        <ele>480.79998779296875</ele>
        <time>2019-03-22T22:04:52.588Z</time>
      </trkpt>
      <trkpt lat="42.998371850699186" lon="13.761121043935418">
        <ele>480.6000061035156</ele>
        <time>2019-03-22T22:04:53.013Z</time>
      </trkpt>
      <trkpt lat="42.998448545113206" lon="13.761174520477653">
        <ele>480.20001220703125</ele>
        <time>2019-03-22T22:04:53.440Z</time>
      </trkpt>
      <trkpt lat="42.99855876713991" lon="13.761283736675978">
        <ele>480.20001220703125</ele>
        <time>2019-03-22T22:04:53.871Z</time>
      </trkpt>
      <trkpt lat="42.99858709797263" lon="13.761304439976811">
        <ele>480.3999938964844</ele>
        <time>2019-03-22T22:04:54.303Z</time>
      </trkpt>
      <trkpt lat="42.99866228364408" lon="13.761383900418878">
        <ele>480.3999938964844</ele>
        <time>2019-03-22T22:04:54.737Z</time>
      </trkpt>
      <trkpt lat="42.99872095696628" lon="13.761468892917037">
        <ele>480.0</ele>
        <time>2019-03-22T22:04:55.173Z</time>
      </trkpt>
      <trkpt lat="42.99874836578965" lon="13.76153209246695">
        <ele>479.3999938964844</ele>
        <time>2019-03-22T22:04:55.610Z</time>
      </trkpt>
      <trkpt lat="42.99884861335158" lon="13.761751279234886">
        <ele>477.20001220703125</ele>
        <time>2019-03-22T22:04:56.052Z</time>
      </trkpt>
      <trkpt lat="42.99893067218363" lon="13.761935262009501">
        <ele>476.0</ele>
        <time>2019-03-22T22:04:56.498Z</time>
      </trkpt>
      <trkpt lat="42.99898674711585" lon="13.762018410488963">
        <ele>476.3999938964844</ele>
        <time>2019-03-22T22:04:56.946Z</time>
      </trkpt>
      <trkpt lat="42.99901708960533" lon="13.76203777268529">
        <ele>476.79998779296875</ele>
        <time>2019-03-22T22:04:57.395Z</time>
      </trkpt>
      <trkpt lat="42.99905698746443" lon="13.762082112953067">
        <ele>477.3999938964844</ele>
        <time>2019-03-22T22:04:57.845Z</time>
      </trkpt>
      <trkpt lat="42.99910300411284" lon="13.762156963348389">
        <ele>477.6000061035156</ele>
        <time>2019-03-22T22:04:58.297Z</time>
      </trkpt>
      <trkpt lat="42.99917156808078" lon="13.762291576713324">
        <ele>478.0</ele>
        <time>2019-03-22T22:04:58.752Z</time>
      </trkpt>
      <trkpt lat="42.99922361969948" lon="13.762379921972752">
        <ele>478.20001220703125</ele>
        <time>2019-03-22T22:04:59.209Z</time>
      </trkpt>
      <trkpt lat="42.999244993552566" lon="13.762413114309311">
        <ele>478.3999938964844</ele>
        <time>2019-03-22T22:04:59.667Z</time>
      </trkpt>
      <trkpt lat="42.999295284971595" lon="13.762476732954383">
        <ele>478.79998779296875</ele>
        <time>2019-03-22T22:05:00.127Z</time>
      </trkpt>
      <trkpt lat="42.9993901681155" lon="13.762589888647199">
        <ele>479.79998779296875</ele>
        <time>2019-03-22T22:05:00.590Z</time>
      </trkpt>
      <trkpt lat="42.99951983615756" lon="13.762627942487597">
        <ele>481.79998779296875</ele>
        <time>2019-03-22T22:05:01.057Z</time>
      </trkpt>
      <trkpt lat="42.99957339651883" lon="13.762618387117982">
        <ele>483.0</ele>
        <time>2019-03-22T22:05:01.525Z</time>
      </trkpt>
      <trkpt lat="42.999687138944864" lon="13.762638503685594">
        <ele>485.0</ele>
        <time>2019-03-22T22:05:01.996Z</time>
      </trkpt>
      <trkpt lat="42.9998526815325" lon="13.762772027403116">
        <ele>486.79998779296875</ele>
        <time>2019-03-22T22:05:02.472Z</time>
      </trkpt>
      <trkpt lat="42.99996089190245" lon="13.76284645870328">
        <ele>487.79998779296875</ele>
        <time>2019-03-22T22:05:02.951Z</time>
      </trkpt>
      <trkpt lat="43.00003775395453" lon="13.762943018227816">
        <ele>488.0</ele>
        <time>2019-03-22T22:05:03.432Z</time>
      </trkpt>
      <trkpt lat="43.00012090243399" lon="13.763062041252851">
        <ele>487.3999938964844</ele>
        <time>2019-03-22T22:05:03.916Z</time>
      </trkpt>
      <trkpt lat="43.000143114477396" lon="13.763098753988743">
        <ele>487.0</ele>
        <time>2019-03-22T22:05:04.401Z</time>
      </trkpt>
      <trkpt lat="43.00026942975819" lon="13.763237725943327">
        <ele>485.20001220703125</ele>
        <time>2019-03-22T22:05:04.890Z</time>
      </trkpt>
      <trkpt lat="43.000309159979224" lon="13.763267062604427">
        <ele>485.0</ele>
        <time>2019-03-22T22:05:05.380Z</time>
      </trkpt>
      <trkpt lat="43.0003690905869" lon="13.763334956020117">
        <ele>484.20001220703125</ele>
        <time>2019-03-22T22:05:05.872Z</time>
      </trkpt>
      <trkpt lat="43.000384010374546" lon="13.763365969061852">
        <ele>483.79998779296875</ele>
        <time>2019-03-22T22:05:06.365Z</time>
      </trkpt>
      <trkpt lat="43.000435223802924" lon="13.763416931033134">
        <ele>483.20001220703125</ele>
        <time>2019-03-22T22:05:06.860Z</time>
      </trkpt>
      <trkpt lat="43.00051032565534" lon="13.76344752497971">
        <ele>482.79998779296875</ele>
        <time>2019-03-22T22:05:07.357Z</time>
      </trkpt>
      <trkpt lat="43.0006455257535" lon="13.763472251594067">
        <ele>482.6000061035156</ele>
        <time>2019-03-22T22:05:07.857Z</time>
      </trkpt>
      <trkpt lat="43.00066212192178" lon="13.76344945281744">
        <ele>483.0</ele>
        <time>2019-03-22T22:05:08.358Z</time>
      </trkpt>
      <trkpt lat="43.00074283964932" lon="13.763334956020117">
        <ele>484.3999938964844</ele>
        <time>2019-03-22T22:05:08.862Z</time>
      </trkpt>
      <trkpt lat="43.00085230730474" lon="13.763271756470203">
        <ele>484.20001220703125</ele>
        <time>2019-03-22T22:05:09.369Z</time>
      </trkpt>
      <trkpt lat="43.00102614797652" lon="13.763153068721294">
        <ele>485.0</ele>
        <time>2019-03-22T22:05:09.881Z</time>
      </trkpt>
      <trkpt lat="43.001145757734776" lon="13.76298719085753">
        <ele>486.20001220703125</ele>
        <time>2019-03-22T22:05:10.397Z</time>
      </trkpt>
      <trkpt lat="43.00121549516916" lon="13.762936061248183">
        <ele>485.6000061035156</ele>
        <time>2019-03-22T22:05:10.915Z</time>
      </trkpt>
      <trkpt lat="43.00123401917517" lon="13.762940168380737">
        <ele>485.20001220703125</ele>
        <time>2019-03-22T22:05:11.433Z</time>
      </trkpt>
      <trkpt lat="43.00133862532675" lon="13.762965481728315">
        <ele>483.79998779296875</ele>
        <time>2019-03-22T22:05:11.954Z</time>
      </trkpt>
      <trkpt lat="43.00145270302892" lon="13.762979647144675">
        <ele>482.20001220703125</ele>
        <time>2019-03-22T22:05:12.478Z</time>
      </trkpt>
      <trkpt lat="43.00147566944361" lon="13.762969924136996">
        <ele>481.79998779296875</ele>
        <time>2019-03-22T22:05:13.003Z</time>
      </trkpt>
      <trkpt lat="43.00148321315646" lon="13.762968247756362">
        <ele>481.6000061035156</ele>
        <time>2019-03-22T22:05:13.528Z</time>
      </trkpt>
      <trkpt lat="43.001515651121736" lon="13.763026082888246">
        <ele>481.6000061035156</ele>
        <time>2019-03-22T22:05:14.054Z</time>
      </trkpt>
      <trkpt lat="43.00154523923993" lon="13.763060700148344">
        <ele>481.6000061035156</ele>
        <time>2019-03-22T22:05:14.581Z</time>
      </trkpt>
      <trkpt lat="43.001707177609205" lon="13.763214843347669">
        <ele>480.6000061035156</ele>
        <time>2019-03-22T22:05:15.113Z</time>
      </trkpt>
      <trkpt lat="43.0018646735698" lon="13.763351049274206">
        <ele>479.0</ele>
        <time>2019-03-22T22:05:15.650Z</time>
      </trkpt>
      <trkpt lat="43.00190633162856" lon="13.763390192762017">
        <ele>478.6000061035156</ele>
        <time>2019-03-22T22:05:16.188Z</time>
      </trkpt>
      <trkpt lat="43.00193357281387" lon="13.76342841424048">
        <ele>478.3999938964844</ele>
        <time>2019-03-22T22:05:16.727Z</time>
      </trkpt>
      <trkpt lat="43.00197799690068" lon="13.763512065634131">
        <ele>478.3999938964844</ele>
        <time>2019-03-22T22:05:17.268Z</time>
      </trkpt>
      <trkpt lat="43.002029713243246" lon="13.763607367873192">
        <ele>478.6000061035156</ele>
        <time>2019-03-22T22:05:17.811Z</time>
      </trkpt>
      <trkpt lat="43.00209048204124" lon="13.763709543272853">
        <ele>478.79998779296875</ele>
        <time>2019-03-22T22:05:18.357Z</time>
      </trkpt>
      <trkpt lat="43.00214421004057" lon="13.763821525499225">
        <ele>479.3999938964844</ele>
        <time>2019-03-22T22:05:18.905Z</time>
      </trkpt>
      <trkpt lat="43.00226298160851" lon="13.764035683125257">
        <ele>480.20001220703125</ele>
        <time>2019-03-22T22:05:19.458Z</time>
      </trkpt>
      <trkpt lat="43.00233917310834" lon="13.764193933457136">
        <ele>479.20001220703125</ele>
        <time>2019-03-22T22:05:20.015Z</time>
      </trkpt>
      <trkpt lat="43.00239181146026" lon="13.76429870724678">
        <ele>478.20001220703125</ele>
        <time>2019-03-22T22:05:20.574Z</time>
      </trkpt>
      <trkpt lat="43.00247688777745" lon="13.764456203207374">
        <ele>477.20001220703125</ele>
        <time>2019-03-22T22:05:21.136Z</time>
      </trkpt>
      <trkpt lat="43.0025777220726" lon="13.764606826007366">
        <ele>477.0</ele>
        <time>2019-03-22T22:05:21.702Z</time>
      </trkpt>
      <trkpt lat="43.00262935459614" lon="13.76470816321671">
        <ele>475.0</ele>
        <time>2019-03-22T22:05:22.271Z</time>
      </trkpt>
      <trkpt lat="43.00269481725991" lon="13.764807656407356">
        <ele>472.3999938964844</ele>
        <time>2019-03-22T22:05:22.842Z</time>
      </trkpt>
      <trkpt lat="43.00272918306291" lon="13.764842692762613">
        <ele>471.20001220703125</ele>
        <time>2019-03-22T22:05:23.414Z</time>
      </trkpt>
      <trkpt lat="43.00277343951166" lon="13.764860965311527">
        <ele>470.0</ele>
        <time>2019-03-22T22:05:23.987Z</time>
      </trkpt>
      <trkpt lat="43.002921883016825" lon="13.764788964763284">
        <ele>466.6000061035156</ele>
        <time>2019-03-22T22:05:24.564Z</time>
      </trkpt>
      <trkpt lat="43.003029925748706" lon="13.764574052765965">
        <ele>466.79998779296875</ele>
        <time>2019-03-22T22:05:25.146Z</time>
      </trkpt>
      <trkpt lat="43.00298918969929" lon="13.76437397673726">
        <ele>470.20001220703125</ele>
        <time>2019-03-22T22:05:25.732Z</time>
      </trkpt>
      <trkpt lat="43.002916015684605" lon="13.764181612059474">
        <ele>469.0</ele>
        <time>2019-03-22T22:05:26.322Z</time>
      </trkpt>
      <trkpt lat="43.00280839204788" lon="13.763945577666163">
        <ele>468.0</ele>
        <time>2019-03-22T22:05:26.917Z</time>
      </trkpt>
      <trkpt lat="43.0027883592993" lon="13.763893274590373">
        <ele>467.6000061035156</ele>
        <time>2019-03-22T22:05:27.513Z</time>
      </trkpt>
      <trkpt lat="43.002807553857565" lon="13.763808785006404">
        <ele>466.0</ele>
        <time>2019-03-22T22:05:28.111Z</time>
      </trkpt>
      <trkpt lat="43.00283261574805" lon="13.763715578243136">
        <ele>464.20001220703125</ele>
        <time>2019-03-22T22:05:28.711Z</time>
      </trkpt>
      <trkpt lat="43.00280679948628" lon="13.763586916029453">
        <ele>463.0</ele>
        <time>2019-03-22T22:05:29.313Z</time>
      </trkpt>
      <trkpt lat="43.00276472233236" lon="13.763474933803082">
        <ele>461.3999938964844</ele>
        <time>2019-03-22T22:05:29.917Z</time>
      </trkpt>
      <trkpt lat="43.0027074739337" lon="13.76336638815701">
        <ele>459.6000061035156</ele>
        <time>2019-03-22T22:05:30.524Z</time>
      </trkpt>
      <trkpt lat="43.00257470458746" lon="13.763213753700256">
        <ele>458.20001220703125</ele>
        <time>2019-03-22T22:05:31.135Z</time>
      </trkpt>
      <trkpt lat="43.0023895483464" lon="13.76305466517806">
        <ele>460.79998779296875</ele>
        <time>2019-03-22T22:05:31.752Z</time>
      </trkpt>
      <trkpt lat="43.00232257694006" lon="13.76299942843616">
        <ele>461.6000061035156</ele>
        <time>2019-03-22T22:05:32.371Z</time>
      </trkpt>
      <trkpt lat="43.00215711817145" lon="13.762855846434832">
        <ele>463.79998779296875</ele>
        <time>2019-03-22T22:05:32.995Z</time>
      </trkpt>
      <trkpt lat="43.002001801505685" lon="13.76271259970963">
        <ele>465.79998779296875</ele>
        <time>2019-03-22T22:05:33.623Z</time>
      </trkpt>
      <trkpt lat="43.00184329971671" lon="13.76257530413568">
        <ele>466.6000061035156</ele>
        <time>2019-03-22T22:05:34.256Z</time>
      </trkpt>
      <trkpt lat="43.001677421852946" lon="13.762441612780094">
        <ele>467.6000061035156</ele>
        <time>2019-03-22T22:05:34.894Z</time>
      </trkpt>
      <trkpt lat="43.00164833664894" lon="13.762419736012816">
        <ele>467.79998779296875</ele>
        <time>2019-03-22T22:05:35.533Z</time>
      </trkpt>
      <trkpt lat="43.001466281712055" lon="13.762257881462574">
        <ele>467.6000061035156</ele>
        <time>2019-03-22T22:05:36.177Z</time>
      </trkpt>
      <trkpt lat="43.001311887055635" lon="13.762118658050895">
        <ele>467.3999938964844</ele>
        <time>2019-03-22T22:05:36.826Z</time>
      </trkpt>
      <trkpt lat="43.00125396810472" lon="13.762060822919011">
        <ele>467.0</ele>
        <time>2019-03-22T22:05:37.477Z</time>
      </trkpt>
      <trkpt lat="43.00113720819354" lon="13.76196057535708">
        <ele>467.20001220703125</ele>
        <time>2019-03-22T22:05:38.131Z</time>
      </trkpt>
      <trkpt lat="43.00096035003662" lon="13.76186485402286">
        <ele>469.0</ele>
        <time>2019-03-22T22:05:38.790Z</time>
      </trkpt>
      <trkpt lat="43.00087904557586" lon="13.761839624494314">
        <ele>470.3999938964844</ele>
        <time>2019-03-22T22:05:39.451Z</time>
      </trkpt>
      <trkpt lat="43.000682489946485" lon="13.761813472956419">
        <ele>473.20001220703125</ele>
        <time>2019-03-22T22:05:40.117Z</time>
      </trkpt>
      <trkpt lat="43.000493394210935" lon="13.761808443814516">
        <ele>476.6000061035156</ele>
        <time>2019-03-22T22:05:40.788Z</time>
      </trkpt>
      <trkpt lat="43.000452406704426" lon="13.761813892051578">
        <ele>477.6000061035156</ele>
        <time>2019-03-22T22:05:41.460Z</time>
      </trkpt>
      <trkpt lat="43.000266244634986" lon="13.761781705543399">
        <ele>480.0</ele>
        <time>2019-03-22T22:05:42.137Z</time>
      </trkpt>
      <trkpt lat="43.00023280084133" lon="13.761763265356421">
        <ele>479.79998779296875</ele>
        <time>2019-03-22T22:05:42.815Z</time>
      </trkpt>
      <trkpt lat="43.000094750896096" lon="13.761659329757094">
        <ele>478.6000061035156</ele>
        <time>2019-03-22T22:05:43.497Z</time>
      </trkpt>
      <trkpt lat="42.99992384389043" lon="13.761498900130391">
        <ele>477.79998779296875</ele>
        <time>2019-03-22T22:05:44.184Z</time>
      </trkpt>
      <trkpt lat="42.99989853054285" lon="13.761463109403849">
        <ele>477.20001220703125</ele>
        <time>2019-03-22T22:05:44.872Z</time>
      </trkpt>
      <trkpt lat="42.99979249946773" lon="13.7612911965698">
        <ele>474.0</ele>
        <time>2019-03-22T22:05:45.564Z</time>
      </trkpt>
      <trkpt lat="42.999726282432675" lon="13.761153984814882">
        <ele>470.79998779296875</ele>
        <time>2019-03-22T22:05:46.259Z</time>
      </trkpt>
      <trkpt lat="42.999609019607306" lon="13.760928427800536">
        <ele>466.6000061035156</ele>
        <time>2019-03-22T22:05:46.959Z</time>
      </trkpt>
      <trkpt lat="42.99956769682467" lon="13.760870760306716">
        <ele>466.0</ele>
        <time>2019-03-22T22:05:47.661Z</time>
      </trkpt>
      <trkpt lat="42.99953492358327" lon="13.760856930166483">
        <ele>466.6000061035156</ele>
        <time>2019-03-22T22:05:48.364Z</time>
      </trkpt>
      <trkpt lat="42.99944079481065" lon="13.760897079482675">
        <ele>470.79998779296875</ele>
        <time>2019-03-22T22:05:49.069Z</time>
      </trkpt>
      <trkpt lat="42.99941187724471" lon="13.760988609865308">
        <ele>474.3999938964844</ele>
        <time>2019-03-22T22:05:49.776Z</time>
      </trkpt>
      <trkpt lat="42.99939117394388" lon="13.761015683412552">
        <ele>475.79998779296875</ele>
        <time>2019-03-22T22:05:50.484Z</time>
      </trkpt>
      <trkpt lat="42.99930567853153" lon="13.761073015630245">
        <ele>480.3999938964844</ele>
        <time>2019-03-22T22:05:51.194Z</time>
      </trkpt>
      <trkpt lat="42.99923853948712" lon="13.761043343693018">
        <ele>481.0</ele>
        <time>2019-03-22T22:05:51.906Z</time>
      </trkpt>
      <trkpt lat="42.999214734882116" lon="13.76102440059185">
        <ele>481.0</ele>
        <time>2019-03-22T22:05:52.618Z</time>
      </trkpt>
      <trkpt lat="42.9990635253489" lon="13.760884590446949">
        <ele>481.20001220703125</ele>
        <time>2019-03-22T22:05:53.335Z</time>
      </trkpt>
      <trkpt lat="42.998890774324536" lon="13.760743774473667">
        <ele>481.3999938964844</ele>
        <time>2019-03-22T22:05:54.057Z</time>
      </trkpt>
      <trkpt lat="42.99886110238731" lon="13.760711839422584">
        <ele>481.3999938964844</ele>
        <time>2019-03-22T22:05:54.780Z</time>
      </trkpt>
      <trkpt lat="42.99880879931152" lon="13.760618213564157">
        <ele>481.6000061035156</ele>
        <time>2019-03-22T22:05:55.505Z</time>
      </trkpt>
      <trkpt lat="42.998780217021704" lon="13.760417886078358">
        <ele>476.6000061035156</ele>
        <time>2019-03-22T22:05:56.234Z</time>
      </trkpt>
      <trkpt lat="42.99877577461302" lon="13.760342197492719">
        <ele>474.3999938964844</ele>
        <time>2019-03-22T22:05:56.964Z</time>
      </trkpt>
      <trkpt lat="42.99877284094691" lon="13.760260557755828">
        <ele>472.0</ele>
        <time>2019-03-22T22:05:57.696Z</time>
      </trkpt>
      <trkpt lat="42.99879463389516" lon="13.760092835873365">
        <ele>467.0</ele>
        <time>2019-03-22T22:05:58.431Z</time>
      </trkpt>
      <trkpt lat="42.998792454600334" lon="13.760045729577541">
        <ele>465.79998779296875</ele>
        <time>2019-03-22T22:05:59.167Z</time>
      </trkpt>
      <trkpt lat="42.99871156923473" lon="13.759915307164192">
        <ele>465.3999938964844</ele>
        <time>2019-03-22T22:05:59.906Z</time>
      </trkpt>
      <trkpt lat="42.99863135442138" lon="13.759836936369538">
        <ele>466.0</ele>
        <time>2019-03-22T22:06:00.648Z</time>
      </trkpt>
      <trkpt lat="42.99850361421704" lon="13.75968899577856">
        <ele>466.6000061035156</ele>
        <time>2019-03-22T22:06:01.394Z</time>
      </trkpt>
      <trkpt lat="42.99837411381304" lon="13.759560668841004">
        <ele>468.0</ele>
        <time>2019-03-22T22:06:02.144Z</time>
      </trkpt>
      <trkpt lat="42.99834745936096" lon="13.759525129571557">
        <ele>468.20001220703125</ele>
        <time>2019-03-22T22:06:02.895Z</time>
      </trkpt>
      <trkpt lat="42.99832792952657" lon="13.759482549503446">
        <ele>468.0</ele>
        <time>2019-03-22T22:06:03.647Z</time>
      </trkpt>
      <trkpt lat="42.99823120236397" lon="13.759338213130832">
        <ele>467.79998779296875</ele>
        <time>2019-03-22T22:06:04.402Z</time>
      </trkpt>
      <trkpt lat="42.99810673110187" lon="13.759157666936517">
        <ele>465.79998779296875</ele>
        <time>2019-03-22T22:06:05.162Z</time>
      </trkpt>
      <trkpt lat="42.99804411828518" lon="13.759053479880095">
        <ele>464.3999938964844</ele>
        <time>2019-03-22T22:06:05.925Z</time>
      </trkpt>
      <trkpt lat="42.997927358374" lon="13.75888860784471">
        <ele>462.6000061035156</ele>
        <time>2019-03-22T22:06:06.692Z</time>
      </trkpt>
      <trkpt lat="42.99775728955865" lon="13.758718706667423">
        <ele>462.79998779296875</ele>
        <time>2019-03-22T22:06:07.464Z</time>
      </trkpt>
      <trkpt lat="42.99769534729421" lon="13.758672187104821">
        <ele>463.6000061035156</ele>
        <time>2019-03-22T22:06:08.238Z</time>
      </trkpt>
      <trkpt lat="42.99751169979572" lon="13.75855291262269">
        <ele>462.20001220703125</ele>
        <time>2019-03-22T22:06:09.017Z</time>
      </trkpt>
      <trkpt lat="42.99747976474464" lon="13.758539585396647">
        <ele>461.20001220703125</ele>
        <time>2019-03-22T22:06:09.797Z</time>
      </trkpt>
      <trkpt lat="42.997279185801744" lon="13.758504129946232">
        <ele>456.79998779296875</ele>
        <time>2019-03-22T22:06:10.582Z</time>
      </trkpt>
      <trkpt lat="42.9972468316555" lon="13.758511506021023">
        <ele>456.6000061035156</ele>
        <time>2019-03-22T22:06:11.368Z</time>
      </trkpt>
      <trkpt lat="42.99707290716469" lon="13.7586042098701">
        <ele>457.3999938964844</ele>
        <time>2019-03-22T22:06:12.158Z</time>
      </trkpt>
      <trkpt lat="42.99703711643815" lon="13.7586335465312">
        <ele>458.0</ele>
        <time>2019-03-22T22:06:12.950Z</time>
      </trkpt>
      <trkpt lat="42.99689504317939" lon="13.758862959221005">
        <ele>464.6000061035156</ele>
        <time>2019-03-22T22:06:13.747Z</time>
      </trkpt>
      <trkpt lat="42.99684357829392" lon="13.758954824879766">
        <ele>467.20001220703125</ele>
        <time>2019-03-22T22:06:14.546Z</time>
      </trkpt>
      <trkpt lat="42.99671282060444" lon="13.759138556197286">
        <ele>471.3999938964844</ele>
        <time>2019-03-22T22:06:15.350Z</time>
      </trkpt>
      <trkpt lat="42.996669821441174" lon="13.759174682199955">
        <ele>471.20001220703125</ele>
        <time>2019-03-22T22:06:16.155Z</time>
      </trkpt>
      <trkpt lat="42.996526658535004" lon="13.75926529057324">
        <ele>468.79998779296875</ele>
        <time>2019-03-22T22:06:16.964Z</time>
      </trkpt>
      <trkpt lat="42.99633823335171" lon="13.759433599188924">
        <ele>465.0</ele>
        <time>2019-03-22T22:06:17.779Z</time>
      </trkpt>
      <trkpt lat="42.99624402076006" lon="13.759528566151857">
        <ele>462.20001220703125</ele>
        <time>2019-03-22T22:06:18.597Z</time>
      </trkpt>
      <trkpt lat="42.996155424043536" lon="13.759640045464039">
        <ele>460.20001220703125</ele>
        <time>2019-03-22T22:06:19.418Z</time>
      </trkpt>
      <trkpt lat="42.99603782594204" lon="13.759834505617619">
        <ele>463.0</ele>
        <time>2019-03-22T22:06:20.244Z</time>
      </trkpt>
      <trkpt lat="42.99592483788729" lon="13.760043801739812">
        <ele>466.20001220703125</ele>
        <time>2019-03-22T22:06:21.074Z</time>
      </trkpt>
      <trkpt lat="42.995815789327025" lon="13.760285200551152">
        <ele>466.79998779296875</ele>
        <time>2019-03-22T22:06:21.910Z</time>
      </trkpt>
      <trkpt lat="42.99570933915675" lon="13.760544704273343">
        <ele>464.79998779296875</ele>
        <time>2019-03-22T22:06:22.751Z</time>
      </trkpt>
      <trkpt lat="42.9956151265651" lon="13.760816110298038">
        <ele>464.6000061035156</ele>
        <time>2019-03-22T22:06:23.598Z</time>
      </trkpt>
      <trkpt lat="42.99551420845091" lon="13.761110985651612">
        <ele>465.3999938964844</ele>
        <time>2019-03-22T22:06:24.451Z</time>
      </trkpt>
      <trkpt lat="42.9954750649631" lon="13.761206874623895">
        <ele>463.0</ele>
        <time>2019-03-22T22:06:25.306Z</time>
      </trkpt>
      <trkpt lat="42.99543206579983" lon="13.761298824101686">
        <ele>460.20001220703125</ele>
        <time>2019-03-22T22:06:26.163Z</time>
      </trkpt>
      <trkpt lat="42.995318323373795" lon="13.761486494913697">
        <ele>459.20001220703125</ele>
        <time>2019-03-22T22:06:27.024Z</time>
      </trkpt>
      <trkpt lat="42.99518630839884" lon="13.76164985820651">
        <ele>459.79998779296875</ele>
        <time>2019-03-22T22:06:27.890Z</time>
      </trkpt>
      <trkpt lat="42.99498673528433" lon="13.761874241754413">
        <ele>458.3999938964844</ele>
        <time>2019-03-22T22:06:28.762Z</time>
      </trkpt>
      <trkpt lat="42.99481968395412" lon="13.762107593938708">
        <ele>452.0</ele>
        <time>2019-03-22T22:06:29.640Z</time>
      </trkpt>
      <trkpt lat="42.994709964841604" lon="13.762351339682937">
        <ele>447.6000061035156</ele>
        <time>2019-03-22T22:06:30.524Z</time>
      </trkpt>
      <trkpt lat="42.994683058932424" lon="13.76243750564754">
        <ele>447.0</ele>
        <time>2019-03-22T22:06:31.409Z</time>
      </trkpt>
      <trkpt lat="42.994640562683344" lon="13.762602545320988">
        <ele>446.3999938964844</ele>
        <time>2019-03-22T22:06:32.298Z</time>
      </trkpt>
      <trkpt lat="42.99457476474345" lon="13.762877974659204">
        <ele>446.0</ele>
        <time>2019-03-22T22:06:33.192Z</time>
      </trkpt>
      <trkpt lat="42.9945566598326" lon="13.762968080118299">
        <ele>446.0</ele>
        <time>2019-03-22T22:06:34.088Z</time>
      </trkpt>
      <trkpt lat="42.994500333443284" lon="13.76323445700109">
        <ele>445.6000061035156</ele>
        <time>2019-03-22T22:06:34.989Z</time>
      </trkpt>
      <trkpt lat="42.99444400705397" lon="13.76350368373096">
        <ele>445.20001220703125</ele>
        <time>2019-03-22T22:06:35.895Z</time>
      </trkpt>
      <trkpt lat="42.9943888541311" lon="13.763767797499895">
        <ele>446.0</ele>
        <time>2019-03-22T22:06:36.806Z</time>
      </trkpt>
      <trkpt lat="42.99434325657785" lon="13.764032246544957">
        <ele>448.6000061035156</ele>
        <time>2019-03-22T22:06:37.722Z</time>
      </trkpt>
      <trkpt lat="42.99430260434747" lon="13.764294013381004">
        <ele>451.20001220703125</ele>
        <time>2019-03-22T22:06:38.643Z</time>
      </trkpt>
      <trkpt lat="42.99427301622927" lon="13.764488808810711">
        <ele>452.79998779296875</ele>
        <time>2019-03-22T22:06:39.568Z</time>
      </trkpt>
      <trkpt lat="42.99423982389271" lon="13.764780247583985">
        <ele>456.3999938964844</ele>
        <time>2019-03-22T22:06:40.498Z</time>
      </trkpt>
      <trkpt lat="42.994219958782196" lon="13.764970852062106">
        <ele>458.20001220703125</ele>
        <time>2019-03-22T22:06:41.432Z</time>
      </trkpt>
      <trkpt lat="42.99423152580857" lon="13.765071853995323">
        <ele>460.20001220703125</ele>
        <time>2019-03-22T22:06:42.368Z</time>
      </trkpt>
      <trkpt lat="42.994296066462994" lon="13.765292633324862">
        <ele>463.0</ele>
        <time>2019-03-22T22:06:43.308Z</time>
      </trkpt>
      <trkpt lat="42.99439740367234" lon="13.765615001320839">
        <ele>464.0</ele>
        <time>2019-03-22T22:06:44.255Z</time>
      </trkpt>
      <trkpt lat="42.99446596764028" lon="13.765836535021663">
        <ele>464.79998779296875</ele>
        <time>2019-03-22T22:06:45.206Z</time>
      </trkpt>
      <trkpt lat="42.99456185661256" lon="13.766147335991263">
        <ele>464.0</ele>
        <time>2019-03-22T22:06:46.163Z</time>
      </trkpt>
      <trkpt lat="42.99466202035546" lon="13.766442462801933">
        <ele>459.20001220703125</ele>
        <time>2019-03-22T22:06:47.126Z</time>
      </trkpt>
      <trkpt lat="42.99469211138785" lon="13.766548242419958">
        <ele>458.79998779296875</ele>
        <time>2019-03-22T22:06:48.091Z</time>
      </trkpt>
      <trkpt lat="42.99477534368634" lon="13.766853092238307">
        <ele>458.20001220703125</ele>
        <time>2019-03-22T22:06:49.062Z</time>
      </trkpt>
      <trkpt lat="42.99478833563626" lon="13.766959542408586">
        <ele>457.79998779296875</ele>
        <time>2019-03-22T22:06:50.035Z</time>
      </trkpt>
      <trkpt lat="42.99479780718684" lon="13.76708040945232">
        <ele>457.3999938964844</ele>
        <time>2019-03-22T22:06:51.011Z</time>
      </trkpt>
      <trkpt lat="42.99482077360153" lon="13.767195912078023">
        <ele>456.3999938964844</ele>
        <time>2019-03-22T22:06:51.989Z</time>
      </trkpt>
      <trkpt lat="42.99477291293442" lon="13.767419708892703">
        <ele>457.79998779296875</ele>
        <time>2019-03-22T22:06:52.971Z</time>
      </trkpt>
      <trkpt lat="42.99463151022792" lon="13.76769664697349">
        <ele>462.20001220703125</ele>
        <time>2019-03-22T22:06:53.960Z</time>
      </trkpt>
      <trkpt lat="42.994574680924416" lon="13.76779144629836">
        <ele>463.20001220703125</ele>
        <time>2019-03-22T22:06:54.951Z</time>
      </trkpt>
      <trkpt lat="42.994410898536444" lon="13.76805229112506">
        <ele>463.6000061035156</ele>
        <time>2019-03-22T22:06:55.948Z</time>
      </trkpt>
      <trkpt lat="42.994269328191876" lon="13.768225042149425">
        <ele>462.20001220703125</ele>
        <time>2019-03-22T22:06:56.950Z</time>
      </trkpt>
      <trkpt lat="42.99419330433011" lon="13.768302071839571">
        <ele>461.0</ele>
        <time>2019-03-22T22:06:57.954Z</time>
      </trkpt>
      <trkpt lat="42.99404427409172" lon="13.768439702689648">
        <ele>458.6000061035156</ele>
        <time>2019-03-22T22:06:58.963Z</time>
      </trkpt>
      <trkpt lat="42.99385408870876" lon="13.76857129856944">
        <ele>457.0</ele>
        <time>2019-03-22T22:06:59.977Z</time>
      </trkpt>
      <trkpt lat="42.99375560134649" lon="13.768621841445565">
        <ele>456.79998779296875</ele>
        <time>2019-03-22T22:07:00.994Z</time>
      </trkpt>
      <trkpt lat="42.99354680813849" lon="13.768699876964092">
        <ele>456.6000061035156</ele>
        <time>2019-03-22T22:07:02.016Z</time>
      </trkpt>
      <trkpt lat="42.99335092306137" lon="13.768774224445224">
        <ele>453.6000061035156</ele>
        <time>2019-03-22T22:07:03.043Z</time>
      </trkpt>
      <trkpt lat="42.993242125958204" lon="13.768818145617843">
        <ele>450.3999938964844</ele>
        <time>2019-03-22T22:07:04.073Z</time>
      </trkpt>
      <trkpt lat="42.99303911626339" lon="13.768851086497307">
        <ele>445.79998779296875</ele>
        <time>2019-03-22T22:07:05.109Z</time>
      </trkpt>
      <trkpt lat="42.99293166026473" lon="13.76884295605123">
        <ele>444.0</ele>
        <time>2019-03-22T22:07:06.147Z</time>
      </trkpt>
      <trkpt lat="42.9927241243422" lon="13.768781432881951">
        <ele>442.0</ele>
        <time>2019-03-22T22:07:07.191Z</time>
      </trkpt>
      <trkpt lat="42.992622116580606" lon="13.76873985864222">
        <ele>441.20001220703125</ele>
        <time>2019-03-22T22:07:08.237Z</time>
      </trkpt>
      <trkpt lat="42.99244752153754" lon="13.768655201420188">
        <ele>439.6000061035156</ele>
        <time>2019-03-22T22:07:09.288Z</time>
      </trkpt>
      <trkpt lat="42.99239018931985" lon="13.768605077639222">
        <ele>439.3999938964844</ele>
        <time>2019-03-22T22:07:10.341Z</time>
      </trkpt>
      <trkpt lat="42.99225356429815" lon="13.768369713798165">
        <ele>436.20001220703125</ele>
        <time>2019-03-22T22:07:11.399Z</time>
      </trkpt>
      <trkpt lat="42.99222104251385" lon="13.768285643309355">
        <ele>434.79998779296875</ele>
        <time>2019-03-22T22:07:12.459Z</time>
      </trkpt>
      <trkpt lat="42.99215516075492" lon="13.768081963062286">
        <ele>432.6000061035156</ele>
        <time>2019-03-22T22:07:13.523Z</time>
      </trkpt>
      <trkpt lat="42.992109982296824" lon="13.767876354977489">
        <ele>432.79998779296875</ele>
        <time>2019-03-22T22:07:14.591Z</time>
      </trkpt>
      <trkpt lat="42.99202440306544" lon="13.767530433833599">
        <ele>430.0</ele>
        <time>2019-03-22T22:07:15.666Z</time>
      </trkpt>
      <trkpt lat="42.99197184853256" lon="13.7672851793468">
        <ele>426.20001220703125</ele>
        <time>2019-03-22T22:07:16.746Z</time>
      </trkpt>
      <trkpt lat="42.99194695428014" lon="13.767160959541798">
        <ele>424.3999938964844</ele>
        <time>2019-03-22T22:07:17.828Z</time>
      </trkpt>
      <trkpt lat="42.9918987583369" lon="13.76687966287136">
        <ele>423.20001220703125</ele>
        <time>2019-03-22T22:07:18.915Z</time>
      </trkpt>
      <trkpt lat="42.991894064471126" lon="13.766730381175876">
        <ele>420.79998779296875</ele>
        <time>2019-03-22T22:07:20.005Z</time>
      </trkpt>
      <trkpt lat="42.991906218230724" lon="13.76656936481595">
        <ele>419.20001220703125</ele>
        <time>2019-03-22T22:07:21.098Z</time>
      </trkpt>
      <trkpt lat="42.99192658625543" lon="13.766414299607277">
        <ele>418.20001220703125</ele>
        <time>2019-03-22T22:07:22.194Z</time>
      </trkpt>
      <trkpt lat="42.99196857959032" lon="13.766072317957878">
        <ele>414.0</ele>
        <time>2019-03-22T22:07:23.296Z</time>
      </trkpt>
      <trkpt lat="42.99199255183339" lon="13.765931334346533">
        <ele>411.6000061035156</ele>
        <time>2019-03-22T22:07:24.401Z</time>
      </trkpt>
      <trkpt lat="42.992029432207346" lon="13.765786997973919">
        <ele>409.6000061035156</ele>
        <time>2019-03-22T22:07:25.509Z</time>
      </trkpt>
      <trkpt lat="42.99215759150684" lon="13.765516178682446">
        <ele>407.6000061035156</ele>
        <time>2019-03-22T22:07:26.623Z</time>
      </trkpt>
      <trkpt lat="42.99229212105274" lon="13.765265056863427">
        <ele>403.0</ele>
        <time>2019-03-22T22:07:27.743Z</time>
      </trkpt>
      <trkpt lat="42.992418352514505" lon="13.765031788498163">
        <ele>400.79998779296875</ele>
        <time>2019-03-22T22:07:28.868Z</time>
      </trkpt>
      <trkpt lat="42.9924685601145" lon="13.764937072992325">
        <ele>399.6000061035156</ele>
        <time>2019-03-22T22:07:29.995Z</time>
      </trkpt>
      <trkpt lat="42.99260669387877" lon="13.764678742736578">
        <ele>396.6000061035156</ele>
        <time>2019-03-22T22:07:31.128Z</time>
      </trkpt>
      <trkpt lat="42.992639131844044" lon="13.764604395255446">
        <ele>395.79998779296875</ele>
        <time>2019-03-22T22:07:32.263Z</time>
      </trkpt>
      <trkpt lat="42.99266478046775" lon="13.764496352523565">
        <ele>393.79998779296875</ele>
        <time>2019-03-22T22:07:33.400Z</time>
      </trkpt>
      <trkpt lat="42.992639718577266" lon="13.76446919515729">
        <ele>392.0</ele>
        <time>2019-03-22T22:07:34.538Z</time>
      </trkpt>
      <trkpt lat="42.99256218597293" lon="13.764511104673147">
        <ele>390.20001220703125</ele>
        <time>2019-03-22T22:07:35.678Z</time>
      </trkpt>
      <trkpt lat="42.99247920513153" lon="13.764605736359954">
        <ele>390.3999938964844</ele>
        <time>2019-03-22T22:07:36.820Z</time>
      </trkpt>
      <trkpt lat="42.992373341694474" lon="13.764717886224389">
        <ele>390.20001220703125</ele>
        <time>2019-03-22T22:07:37.966Z</time>
      </trkpt>
      <trkpt lat="42.99230754375458" lon="13.764762142673135">
        <ele>389.3999938964844</ele>
        <time>2019-03-22T22:07:39.114Z</time>
      </trkpt>
      <trkpt lat="42.99215239472687" lon="13.764869011938572">
        <ele>387.3999938964844</ele>
        <time>2019-03-22T22:07:40.266Z</time>
      </trkpt>
      <trkpt lat="42.9919093195349" lon="13.765033800154924">
        <ele>383.20001220703125</ele>
        <time>2019-03-22T22:07:41.425Z</time>
      </trkpt>
      <trkpt lat="42.99165098927915" lon="13.76520847901702">
        <ele>379.0</ele>
        <time>2019-03-22T22:07:42.591Z</time>
      </trkpt>
      <trkpt lat="42.991484021767974" lon="13.765325658023357">
        <ele>377.0</ele>
        <time>2019-03-22T22:07:43.762Z</time>
      </trkpt>
      <trkpt lat="42.991275899112225" lon="13.765506790950894">
        <ele>375.20001220703125</ele>
        <time>2019-03-22T22:07:44.939Z</time>
      </trkpt>
      <trkpt lat="42.99120431765914" lon="13.765574432909489">
        <ele>374.0</ele>
        <time>2019-03-22T22:07:46.118Z</time>
      </trkpt>
      <trkpt lat="42.99108118750155" lon="13.765704603865743">
        <ele>370.79998779296875</ele>
        <time>2019-03-22T22:07:47.301Z</time>
      </trkpt>
      <trkpt lat="42.990949507802725" lon="13.765977686271071">
        <ele>369.3999938964844</ele>
        <time>2019-03-22T22:07:48.490Z</time>
      </trkpt>
      <trkpt lat="42.990843979641795" lon="13.766304329037666">
        <ele>368.79998779296875</ele>
        <time>2019-03-22T22:07:49.686Z</time>
      </trkpt>
      <trkpt lat="42.99077466130257" lon="13.766522593796253">
        <ele>368.3999938964844</ele>
        <time>2019-03-22T22:07:50.886Z</time>
      </trkpt>
      <trkpt lat="42.99070836044848" lon="13.766754604876041">
        <ele>367.79998779296875</ele>
        <time>2019-03-22T22:07:52.091Z</time>
      </trkpt>
      <trkpt lat="42.99062487669289" lon="13.766955183818936">
        <ele>365.79998779296875</ele>
        <time>2019-03-22T22:07:53.300Z</time>
      </trkpt>
      <trkpt lat="42.99055991694331" lon="13.767051240429282">
        <ele>364.6000061035156</ele>
        <time>2019-03-22T22:07:54.512Z</time>
      </trkpt>
      <trkpt lat="42.99041231162846" lon="13.767197169363499">
        <ele>360.79998779296875</ele>
        <time>2019-03-22T22:07:55.728Z</time>
      </trkpt>
      <trkpt lat="42.99034525640309" lon="13.767273779958487">
        <ele>359.6000061035156</ele>
        <time>2019-03-22T22:07:56.946Z</time>
      </trkpt>
      <trkpt lat="42.9902823921293" lon="13.76736145466566">
        <ele>358.79998779296875</ele>
        <time>2019-03-22T22:07:58.167Z</time>
      </trkpt>
      <trkpt lat="42.99015775322914" lon="13.767553567886353">
        <ele>357.20001220703125</ele>
        <time>2019-03-22T22:07:59.392Z</time>
      </trkpt>
      <trkpt lat="42.990096816793084" lon="13.76765314489603">
        <ele>356.6000061035156</ele>
        <time>2019-03-22T22:08:00.620Z</time>
      </trkpt>
      <trkpt lat="42.98997879959643" lon="13.767849951982498">
        <ele>356.3999938964844</ele>
        <time>2019-03-22T22:08:01.853Z</time>
      </trkpt>
      <trkpt lat="42.98981769941747" lon="13.768122280016541">
        <ele>356.79998779296875</ele>
        <time>2019-03-22T22:08:03.092Z</time>
      </trkpt>
      <trkpt lat="42.989770006388426" lon="13.768196124583483">
        <ele>356.79998779296875</ele>
        <time>2019-03-22T22:08:04.333Z</time>
      </trkpt>
      <trkpt lat="42.98960446380079" lon="13.768427213653922">
        <ele>354.0</ele>
        <time>2019-03-22T22:08:05.580Z</time>
      </trkpt>
      <trkpt lat="42.989484183490276" lon="13.768568113446236">
        <ele>351.3999938964844</ele>
        <time>2019-03-22T22:08:06.831Z</time>
      </trkpt>
      <trkpt lat="42.98930564895272" lon="13.768803142011166">
        <ele>347.20001220703125</ele>
        <time>2019-03-22T22:08:08.088Z</time>
      </trkpt>
      <trkpt lat="42.989156786352396" lon="13.768965918570757">
        <ele>343.0</ele>
        <time>2019-03-22T22:08:09.350Z</time>
      </trkpt>
      <trkpt lat="42.98907673917711" lon="13.769050911068916">
        <ele>341.0</ele>
        <time>2019-03-22T22:08:10.615Z</time>
      </trkpt>
      <trkpt lat="42.988928044214845" lon="13.76923925243318">
        <ele>338.79998779296875</ele>
        <time>2019-03-22T22:08:11.885Z</time>
      </trkpt>
      <trkpt lat="42.98879628069699" lon="13.769444189965725">
        <ele>337.79998779296875</ele>
        <time>2019-03-22T22:08:13.160Z</time>
      </trkpt>
      <trkpt lat="42.988656386733055" lon="13.769637811928988">
        <ele>336.0</ele>
        <time>2019-03-22T22:08:14.440Z</time>
      </trkpt>
      <trkpt lat="42.988528311252594" lon="13.769820453599095">
        <ele>335.3999938964844</ele>
        <time>2019-03-22T22:08:15.724Z</time>
      </trkpt>
      <trkpt lat="42.98839093185961" lon="13.769987253472209">
        <ele>334.20001220703125</ele>
        <time>2019-03-22T22:08:17.013Z</time>
      </trkpt>
      <trkpt lat="42.98831935040653" lon="13.770078616216779">
        <ele>333.6000061035156</ele>
        <time>2019-03-22T22:08:18.305Z</time>
      </trkpt>
      <trkpt lat="42.98822714947164" lon="13.770236363634467">
        <ele>334.79998779296875</ele>
        <time>2019-03-22T22:08:19.600Z</time>
      </trkpt>
      <trkpt lat="42.98820041120052" lon="13.77032881602645">
        <ele>334.3999938964844</ele>
        <time>2019-03-22T22:08:20.897Z</time>
      </trkpt>
      <trkpt lat="42.988211726769805" lon="13.770597204566002">
        <ele>335.20001220703125</ele>
        <time>2019-03-22T22:08:22.199Z</time>
      </trkpt>
      <trkpt lat="42.9882204439491" lon="13.77070072107017">
        <ele>335.79998779296875</ele>
        <time>2019-03-22T22:08:23.503Z</time>
      </trkpt>
      <trkpt lat="42.98825757578015" lon="13.770913956686854">
        <ele>337.20001220703125</ele>
        <time>2019-03-22T22:08:24.811Z</time>
      </trkpt>
      <trkpt lat="42.9882828053087" lon="13.771036751568317">
        <ele>338.3999938964844</ele>
        <time>2019-03-22T22:08:26.121Z</time>
      </trkpt>
      <trkpt lat="42.988324547186494" lon="13.771161809563637">
        <ele>337.79998779296875</ele>
        <time>2019-03-22T22:08:27.434Z</time>
      </trkpt>
      <trkpt lat="42.9884278960526" lon="13.771405471488833">
        <ele>336.6000061035156</ele>
        <time>2019-03-22T22:08:28.752Z</time>
      </trkpt>
      <trkpt lat="42.98854323104024" lon="13.771653156727552">
        <ele>336.6000061035156</ele>
        <time>2019-03-22T22:08:30.076Z</time>
      </trkpt>
      <trkpt lat="42.9886107891798" lon="13.771752063184977">
        <ele>337.0</ele>
        <time>2019-03-22T22:08:31.402Z</time>
      </trkpt>
      <trkpt lat="42.98867993988097" lon="13.771841498091817">
        <ele>337.79998779296875</ele>
        <time>2019-03-22T22:08:32.731Z</time>
      </trkpt>
      <trkpt lat="42.98879384994507" lon="13.772004945203662">
        <ele>338.79998779296875</ele>
        <time>2019-03-22T22:08:34.064Z</time>
      </trkpt>
      <trkpt lat="42.98883047886193" lon="13.772198986262083">
        <ele>337.20001220703125</ele>
        <time>2019-03-22T22:08:35.400Z</time>
      </trkpt>
      <trkpt lat="42.98885193653405" lon="13.772317171096802">
        <ele>336.20001220703125</ele>
        <time>2019-03-22T22:08:36.739Z</time>
      </trkpt>
      <trkpt lat="42.988895270973444" lon="13.772491179406643">
        <ele>334.79998779296875</ele>
        <time>2019-03-22T22:08:38.081Z</time>
      </trkpt>
      <trkpt lat="42.98892620019615" lon="13.772605592384934">
        <ele>334.0</ele>
        <time>2019-03-22T22:08:39.425Z</time>
      </trkpt>
      <trkpt lat="42.988944640383124" lon="13.772656554356217">
        <ele>333.79998779296875</ele>
        <time>2019-03-22T22:08:40.770Z</time>
      </trkpt>
      <trkpt lat="42.988980347290635" lon="13.772785384207964">
        <ele>333.0</ele>
        <time>2019-03-22T22:08:42.118Z</time>
      </trkpt>
      <trkpt lat="42.98899518325925" lon="13.772846320644021">
        <ele>332.79998779296875</ele>
        <time>2019-03-22T22:08:43.467Z</time>
      </trkpt>
      <trkpt lat="42.98908084630966" lon="13.773141950368881">
        <ele>331.79998779296875</ele>
        <time>2019-03-22T22:08:44.822Z</time>
      </trkpt>
      <trkpt lat="42.989126443862915" lon="13.773317635059357">
        <ele>331.0</ele>
        <time>2019-03-22T22:08:46.180Z</time>
      </trkpt>
      <trkpt lat="42.98920439556241" lon="13.773573199287057">
        <ele>330.20001220703125</ele>
        <time>2019-03-22T22:08:47.544Z</time>
      </trkpt>
      <trkpt lat="42.989290645346045" lon="13.773825913667679">
        <ele>328.20001220703125</ele>
        <time>2019-03-22T22:08:48.913Z</time>
      </trkpt>
      <trkpt lat="42.989328280091286" lon="13.773924317210913">
        <ele>327.6000061035156</ele>
        <time>2019-03-22T22:08:50.284Z</time>
      </trkpt>
      <trkpt lat="42.9894379992038" lon="13.774226987734437">
        <ele>325.79998779296875</ele>
        <time>2019-03-22T22:08:51.661Z</time>
      </trkpt>
      <trkpt lat="42.9894691798836" lon="13.774352381005883">
        <ele>324.3999938964844</ele>
        <time>2019-03-22T22:08:53.041Z</time>
      </trkpt>
      <trkpt lat="42.98949985764921" lon="13.774480037391186">
        <ele>323.79998779296875</ele>
        <time>2019-03-22T22:08:54.423Z</time>
      </trkpt>
      <trkpt lat="42.98957143910229" lon="13.77474800683558">
        <ele>323.0</ele>
        <time>2019-03-22T22:08:55.810Z</time>
      </trkpt>
      <trkpt lat="42.98964126035571" lon="13.775033662095666">
        <ele>321.6000061035156</ele>
        <time>2019-03-22T22:08:57.203Z</time>
      </trkpt>
      <trkpt lat="42.98967286013067" lon="13.775295848026872">
        <ele>319.79998779296875</ele>
        <time>2019-03-22T22:08:58.601Z</time>
      </trkpt>
      <trkpt lat="42.9896882828325" lon="13.77540523186326">
        <ele>320.0</ele>
        <time>2019-03-22T22:09:00.001Z</time>
      </trkpt>
      <trkpt lat="42.989709908142686" lon="13.775726174935699">
        <ele>319.20001220703125</ele>
        <time>2019-03-22T22:09:01.407Z</time>
      </trkpt>
      <trkpt lat="42.9897057171911" lon="13.775847041979432">
        <ele>318.0</ele>
        <time>2019-03-22T22:09:02.815Z</time>
      </trkpt>
      <trkpt lat="42.989632626995444" lon="13.776169577613473">
        <ele>314.79998779296875</ele>
        <time>2019-03-22T22:09:04.229Z</time>
      </trkpt>
      <trkpt lat="42.98959541134536" lon="13.776262449100614">
        <ele>314.20001220703125</ele>
        <time>2019-03-22T22:09:05.645Z</time>
      </trkpt>
      <trkpt lat="42.98956071026623" lon="13.77634635195136">
        <ele>313.6000061035156</ele>
        <time>2019-03-22T22:09:07.063Z</time>
      </trkpt>
      <trkpt lat="42.98945467919111" lon="13.776610130444169">
        <ele>312.6000061035156</ele>
        <time>2019-03-22T22:09:08.487Z</time>
      </trkpt>
      <trkpt lat="42.98941260203719" lon="13.776702331379056">
        <ele>312.20001220703125</ele>
        <time>2019-03-22T22:09:09.913Z</time>
      </trkpt>
      <trkpt lat="42.98935912549496" lon="13.776780366897583">
        <ele>311.0</ele>
        <time>2019-03-22T22:09:11.341Z</time>
      </trkpt>
      <trkpt lat="42.98922702670097" lon="13.77700592391193">
        <ele>309.6000061035156</ele>
        <time>2019-03-22T22:09:12.774Z</time>
      </trkpt>
      <trkpt lat="42.98911311663687" lon="13.77720532938838">
        <ele>309.3999938964844</ele>
        <time>2019-03-22T22:09:14.212Z</time>
      </trkpt>
      <trkpt lat="42.989057125523686" lon="13.777306331321597">
        <ele>309.20001220703125</ele>
        <time>2019-03-22T22:09:15.652Z</time>
      </trkpt>
      <trkpt lat="42.98901446163654" lon="13.777381516993046">
        <ele>309.20001220703125</ele>
        <time>2019-03-22T22:09:17.094Z</time>
      </trkpt>
      <trkpt lat="42.988969115540385" lon="13.777483273297548">
        <ele>309.3999938964844</ele>
        <time>2019-03-22T22:09:18.538Z</time>
      </trkpt>
      <trkpt lat="42.988848835229874" lon="13.777722157537937">
        <ele>309.3999938964844</ele>
        <time>2019-03-22T22:09:19.987Z</time>
      </trkpt>
      <trkpt lat="42.988829892128706" lon="13.777761301025748">
        <ele>310.20001220703125</ele>
        <time>2019-03-22T22:09:21.437Z</time>
      </trkpt>
      <trkpt lat="42.98870491795242" lon="13.777981074526906">
        <ele>313.79998779296875</ele>
        <time>2019-03-22T22:09:22.892Z</time>
      </trkpt>
      <trkpt lat="42.98865504562855" lon="13.778075370937586">
        <ele>313.6000061035156</ele>
        <time>2019-03-22T22:09:24.349Z</time>
      </trkpt>
      <trkpt lat="42.98860961571336" lon="13.778159022331238">
        <ele>313.20001220703125</ele>
        <time>2019-03-22T22:09:25.808Z</time>
      </trkpt>
      <trkpt lat="42.98850894905627" lon="13.778318529948592">
        <ele>311.6000061035156</ele>
        <time>2019-03-22T22:09:27.271Z</time>
      </trkpt>
      <trkpt lat="42.98840249888599" lon="13.77850360237062">
        <ele>310.6000061035156</ele>
        <time>2019-03-22T22:09:28.739Z</time>
      </trkpt>
      <trkpt lat="42.9883036762476" lon="13.77868004143238">
        <ele>310.79998779296875</ele>
        <time>2019-03-22T22:09:30.211Z</time>
      </trkpt>
      <trkpt lat="42.98828129656613" lon="13.778880620375276">
        <ele>312.3999938964844</ele>
        <time>2019-03-22T22:09:31.687Z</time>
      </trkpt>
      <trkpt lat="42.98836084082723" lon="13.779086228460073">
        <ele>316.6000061035156</ele>
        <time>2019-03-22T22:09:33.167Z</time>
      </trkpt>
      <trkpt lat="42.98848715610802" lon="13.779274569824338">
        <ele>323.20001220703125</ele>
        <time>2019-03-22T22:09:34.652Z</time>
      </trkpt>
      <trkpt lat="42.98858807422221" lon="13.779408764094114">
        <ele>328.6000061035156</ele>
        <time>2019-03-22T22:09:36.140Z</time>
      </trkpt>
      <trkpt lat="42.988706259056926" lon="13.779594339430332">
        <ele>331.3999938964844</ele>
        <time>2019-03-22T22:09:37.633Z</time>
      </trkpt>
      <trkpt lat="42.98880818299949" lon="13.779753763228655">
        <ele>334.0</ele>
        <time>2019-03-22T22:09:39.130Z</time>
      </trkpt>
      <trkpt lat="42.988945227116346" lon="13.779955264180899">
        <ele>338.0</ele>
        <time>2019-03-22T22:09:40.632Z</time>
      </trkpt>
      <trkpt lat="42.98896349966526" lon="13.779982337728143">
        <ele>338.3999938964844</ele>
        <time>2019-03-22T22:09:42.134Z</time>
      </trkpt>
      <trkpt lat="42.98908176831901" lon="13.780178809538484">
        <ele>341.79998779296875</ele>
        <time>2019-03-22T22:09:43.641Z</time>
      </trkpt>
      <trkpt lat="42.98914044164121" lon="13.780366564169526">
        <ele>342.20001220703125</ele>
        <time>2019-03-22T22:09:45.152Z</time>
      </trkpt>
      <trkpt lat="42.98914765007794" lon="13.780548200011253">
        <ele>340.6000061035156</ele>
        <time>2019-03-22T22:09:46.666Z</time>
      </trkpt>
      <trkpt lat="42.9891808424145" lon="13.780698655173182">
        <ele>340.20001220703125</ele>
        <time>2019-03-22T22:09:48.183Z</time>
      </trkpt>
      <trkpt lat="42.98926491290331" lon="13.780924128368497">
        <ele>341.3999938964844</ele>
        <time>2019-03-22T22:09:49.705Z</time>
      </trkpt>
      <trkpt lat="42.989271031692624" lon="13.780955225229263">
        <ele>341.3999938964844</ele>
        <time>2019-03-22T22:09:51.227Z</time>
      </trkpt>
      <trkpt lat="42.98925871029496" lon="13.781100315973163">
        <ele>339.79998779296875</ele>
        <time>2019-03-22T22:09:52.752Z</time>
      </trkpt>
      <trkpt lat="42.989228619262576" lon="13.781261164695024">
        <ele>339.6000061035156</ele>
        <time>2019-03-22T22:09:54.280Z</time>
      </trkpt>
      <trkpt lat="42.98926055431366" lon="13.781457217410207">
        <ele>342.20001220703125</ele>
        <time>2019-03-22T22:09:55.812Z</time>
      </trkpt>
      <trkpt lat="42.989317551255226" lon="13.781588897109032">
        <ele>346.20001220703125</ele>
        <time>2019-03-22T22:09:57.347Z</time>
      </trkpt>
      <trkpt lat="42.98932073637843" lon="13.781797271221876">
        <ele>347.6000061035156</ele>
        <time>2019-03-22T22:09:58.886Z</time>
      </trkpt>
      <trkpt lat="42.98928930424154" lon="13.782013021409512">
        <ele>346.79998779296875</ele>
        <time>2019-03-22T22:10:00.429Z</time>
      </trkpt>
      <trkpt lat="42.989296428859234" lon="13.782177558168769">
        <ele>348.20001220703125</ele>
        <time>2019-03-22T22:10:01.975Z</time>
      </trkpt>
      <trkpt lat="42.98932794481516" lon="13.782393978908658">
        <ele>351.0</ele>
        <time>2019-03-22T22:10:03.525Z</time>
      </trkpt>
      <trkpt lat="42.98938133753836" lon="13.782648034393787">
        <ele>355.20001220703125</ele>
        <time>2019-03-22T22:10:05.080Z</time>
      </trkpt>
      <trkpt lat="42.98943657428026" lon="13.782864036038518">
        <ele>356.0</ele>
        <time>2019-03-22T22:10:06.639Z</time>
      </trkpt>
      <trkpt lat="42.989463564008474" lon="13.782894043251872">
        <ele>357.0</ele>
        <time>2019-03-22T22:10:08.199Z</time>
      </trkpt>
      <trkpt lat="42.989509580656886" lon="13.782886834815145">
        <ele>359.3999938964844</ele>
        <time>2019-03-22T22:10:09.760Z</time>
      </trkpt>
      <trkpt lat="42.989519303664565" lon="13.782812571153045">
        <ele>361.0</ele>
        <time>2019-03-22T22:10:11.322Z</time>
      </trkpt>
      <trkpt lat="42.98952181823552" lon="13.78278792835772">
        <ele>361.3999938964844</ele>
        <time>2019-03-22T22:10:12.885Z</time>
      </trkpt>
      <trkpt lat="42.98951662145555" lon="13.782644011080265">
        <ele>361.79998779296875</ele>
        <time>2019-03-22T22:10:14.451Z</time>
      </trkpt>
      <trkpt lat="42.989512933418155" lon="13.782447958365083">
        <ele>360.3999938964844</ele>
        <time>2019-03-22T22:10:16.020Z</time>
      </trkpt>
      <trkpt lat="42.989545706659555" lon="13.782305885106325">
        <ele>361.20001220703125</ele>
        <time>2019-03-22T22:10:17.592Z</time>
      </trkpt>
      <trkpt lat="42.98960471525788" lon="13.782337317243218">
        <ele>364.20001220703125</ele>
        <time>2019-03-22T22:10:19.165Z</time>
      </trkpt>
      <trkpt lat="42.98963195644319" lon="13.782465560361743">
        <ele>366.3999938964844</ele>
        <time>2019-03-22T22:10:20.741Z</time>
      </trkpt>
      <trkpt lat="42.98963053151965" lon="13.78249078989029">
        <ele>366.3999938964844</ele>
        <time>2019-03-22T22:10:22.317Z</time>
      </trkpt>
      <trkpt lat="42.98965198919177" lon="13.782694637775421">
        <ele>368.79998779296875</ele>
        <time>2019-03-22T22:10:23.897Z</time>
      </trkpt>
      <trkpt lat="42.98973295837641" lon="13.782840482890606">
        <ele>371.0</ele>
        <time>2019-03-22T22:10:25.481Z</time>
      </trkpt>
      <trkpt lat="42.98985633999109" lon="13.78298339433968">
        <ele>375.0</ele>
        <time>2019-03-22T22:10:27.069Z</time>
      </trkpt>
      <trkpt lat="42.98997997306287" lon="13.78313971683383">
        <ele>378.79998779296875</ele>
        <time>2019-03-22T22:10:28.661Z</time>
      </trkpt>
      <trkpt lat="42.99008080735803" lon="13.783269803971052">
        <ele>382.0</ele>
        <time>2019-03-22T22:10:30.256Z</time>
      </trkpt>
      <trkpt lat="42.99009270966053" lon="13.783271480351686">
        <ele>382.3999938964844</ele>
        <time>2019-03-22T22:10:31.852Z</time>
      </trkpt>
      <trkpt lat="42.99012254923582" lon="13.783235438168049">
        <ele>384.0</ele>
        <time>2019-03-22T22:10:33.449Z</time>
      </trkpt>
      <trkpt lat="42.99012833274901" lon="13.783134520053864">
        <ele>385.6000061035156</ele>
        <time>2019-03-22T22:10:35.048Z</time>
      </trkpt>
      <trkpt lat="42.99011911265552" lon="13.783112559467554">
        <ele>385.6000061035156</ele>
        <time>2019-03-22T22:10:36.647Z</time>
      </trkpt>
      <trkpt lat="42.99007452093065" lon="13.782987920567393">
        <ele>385.6000061035156</ele>
        <time>2019-03-22T22:10:38.249Z</time>
      </trkpt>
      <trkpt lat="42.990045100450516" lon="13.782839057967067">
        <ele>386.3999938964844</ele>
        <time>2019-03-22T22:10:39.854Z</time>
      </trkpt>
      <trkpt lat="42.990013249218464" lon="13.782672844827175">
        <ele>386.3999938964844</ele>
        <time>2019-03-22T22:10:41.462Z</time>
      </trkpt>
      <trkpt lat="42.98997628502548" lon="13.782495316118002">
        <ele>384.3999938964844</ele>
        <time>2019-03-22T22:10:43.073Z</time>
      </trkpt>
      <trkpt lat="42.989915097132325" lon="13.782250732183456">
        <ele>381.20001220703125</ele>
        <time>2019-03-22T22:10:44.689Z</time>
      </trkpt>
      <trkpt lat="42.98988760448992" lon="13.782048225402832">
        <ele>379.79998779296875</ele>
        <time>2019-03-22T22:10:46.309Z</time>
      </trkpt>
      <trkpt lat="42.98992037773132" lon="13.78186390735209">
        <ele>381.79998779296875</ele>
        <time>2019-03-22T22:10:47.932Z</time>
      </trkpt>
      <trkpt lat="42.990052895620465" lon="13.781658969819546">
        <ele>389.3999938964844</ele>
        <time>2019-03-22T22:10:49.560Z</time>
      </trkpt>
      <trkpt lat="42.99013654701412" lon="13.781471969559789">
        <ele>393.0</ele>
        <time>2019-03-22T22:10:51.192Z</time>
      </trkpt>
      <trkpt lat="42.990251211449504" lon="13.78128094598651">
        <ele>396.20001220703125</ele>
        <time>2019-03-22T22:10:52.829Z</time>
      </trkpt>
      <trkpt lat="42.99026956781745" lon="13.78126636147499">
        <ele>396.6000061035156</ele>
        <time>2019-03-22T22:10:54.466Z</time>
      </trkpt>
      <trkpt lat="42.99037308432162" lon="13.781214896589518">
        <ele>399.20001220703125</ele>
        <time>2019-03-22T22:10:56.106Z</time>
      </trkpt>
      <trkpt lat="42.990469140931964" lon="13.781206598505378">
        <ele>401.3999938964844</ele>
        <time>2019-03-22T22:10:57.749Z</time>
      </trkpt>
      <trkpt lat="42.99052990972996" lon="13.781303158029914">
        <ele>403.0</ele>
        <time>2019-03-22T22:10:59.394Z</time>
      </trkpt>
      <trkpt lat="42.990562012419105" lon="13.781433748081326">
        <ele>404.0</ele>
        <time>2019-03-22T22:11:01.042Z</time>
      </trkpt>
      <trkpt lat="42.990561593323946" lon="13.781452858820558">
        <ele>404.0</ele>
        <time>2019-03-22T22:11:02.690Z</time>
      </trkpt>
      <trkpt lat="42.99054583534598" lon="13.781489990651608">
        <ele>403.6000061035156</ele>
        <time>2019-03-22T22:11:04.339Z</time>
      </trkpt>
      <trkpt lat="42.99055639654398" lon="13.781534750014544">
        <ele>404.0</ele>
        <time>2019-03-22T22:11:05.989Z</time>
      </trkpt>
      <trkpt lat="42.99058087170124" lon="13.781644469127059">
        <ele>404.3999938964844</ele>
        <time>2019-03-22T22:11:07.641Z</time>
      </trkpt>
      <trkpt lat="42.99057659693062" lon="13.781658299267292">
        <ele>404.3999938964844</ele>
        <time>2019-03-22T22:11:09.293Z</time>
      </trkpt>
      <trkpt lat="42.99057877622545" lon="13.781681936234236">
        <ele>404.3999938964844</ele>
        <time>2019-03-22T22:11:10.945Z</time>
      </trkpt>
      <trkpt lat="42.990572741255164" lon="13.78174228593707">
        <ele>404.20001220703125</ele>
        <time>2019-03-22T22:11:12.599Z</time>
      </trkpt>
      <trkpt lat="42.9905931930989" lon="13.7818219140172">
        <ele>404.6000061035156</ele>
        <time>2019-03-22T22:11:14.254Z</time>
      </trkpt>
      <trkpt lat="42.9906037542969" lon="13.78184731118381">
        <ele>404.79998779296875</ele>
        <time>2019-03-22T22:11:15.910Z</time>
      </trkpt>
      <trkpt lat="42.990650944411755" lon="13.78190933726728">
        <ele>406.0</ele>
        <time>2019-03-22T22:11:17.567Z</time>
      </trkpt>
      <trkpt lat="42.99069603905082" lon="13.781918808817863">
        <ele>407.20001220703125</ele>
        <time>2019-03-22T22:11:19.226Z</time>
      </trkpt>
      <trkpt lat="42.99077541567385" lon="13.781819231808186">
        <ele>409.3999938964844</ele>
        <time>2019-03-22T22:11:20.887Z</time>
      </trkpt>
      <trkpt lat="42.99079494550824" lon="13.781745554879308">
        <ele>410.0</ele>
        <time>2019-03-22T22:11:22.550Z</time>
      </trkpt>
      <trkpt lat="42.99085311591625" lon="13.781572552397847">
        <ele>411.20001220703125</ele>
        <time>2019-03-22T22:11:24.216Z</time>
      </trkpt>
      <trkpt lat="42.990919668227434" lon="13.781350180506706">
        <ele>412.20001220703125</ele>
        <time>2019-03-22T22:11:25.887Z</time>
      </trkpt>
      <trkpt lat="42.990992087870836" lon="13.78113049082458">
        <ele>410.79998779296875</ele>
        <time>2019-03-22T22:11:27.562Z</time>
      </trkpt>
      <trkpt lat="42.99105134792626" lon="13.780906023457646">
        <ele>410.79998779296875</ele>
        <time>2019-03-22T22:11:29.242Z</time>
      </trkpt>
      <trkpt lat="42.991077499464154" lon="13.780612405389547">
        <ele>410.79998779296875</ele>
        <time>2019-03-22T22:11:30.927Z</time>
      </trkpt>
      <trkpt lat="42.99107330851257" lon="13.780558090656996">
        <ele>410.79998779296875</ele>
        <time>2019-03-22T22:11:32.613Z</time>
      </trkpt>
      <trkpt lat="42.991003822535276" lon="13.780316775664687">
        <ele>412.0</ele>
        <time>2019-03-22T22:11:34.304Z</time>
      </trkpt>
      <trkpt lat="42.99098404124379" lon="13.780272603034973">
        <ele>412.20001220703125</ele>
        <time>2019-03-22T22:11:35.996Z</time>
      </trkpt>
      <trkpt lat="42.990891840308905" lon="13.78004084341228">
        <ele>412.0</ele>
        <time>2019-03-22T22:11:37.693Z</time>
      </trkpt>
      <trkpt lat="42.99087750725448" lon="13.779998682439327">
        <ele>411.6000061035156</ele>
        <time>2019-03-22T22:11:39.391Z</time>
      </trkpt>
      <trkpt lat="42.990771140903234" lon="13.779779160395265">
        <ele>409.79998779296875</ele>
        <time>2019-03-22T22:11:41.093Z</time>
      </trkpt>
      <trkpt lat="42.99065354280174" lon="13.77951554954052">
        <ele>407.3999938964844</ele>
        <time>2019-03-22T22:11:42.801Z</time>
      </trkpt>
      <trkpt lat="42.99061833880842" lon="13.779232744127512">
        <ele>405.0</ele>
        <time>2019-03-22T22:11:44.514Z</time>
      </trkpt>
      <trkpt lat="42.99062286503613" lon="13.77915982156992">
        <ele>404.3999938964844</ele>
        <time>2019-03-22T22:11:46.229Z</time>
      </trkpt>
      <trkpt lat="42.99066008068621" lon="13.778949938714504">
        <ele>404.3999938964844</ele>
        <time>2019-03-22T22:11:47.948Z</time>
      </trkpt>
      <trkpt lat="42.990695368498564" lon="13.77883292734623">
        <ele>405.0</ele>
        <time>2019-03-22T22:11:49.669Z</time>
      </trkpt>
      <trkpt lat="42.99079427495599" lon="13.778577698394656">
        <ele>406.79998779296875</ele>
        <time>2019-03-22T22:11:51.395Z</time>
      </trkpt>
      <trkpt lat="42.99082679674029" lon="13.778490778058767">
        <ele>405.3999938964844</ele>
        <time>2019-03-22T22:11:53.123Z</time>
      </trkpt>
      <trkpt lat="42.99091857858002" lon="13.778266897425056">
        <ele>408.0</ele>
        <time>2019-03-22T22:11:54.856Z</time>
      </trkpt>
      <trkpt lat="42.99093266017735" lon="13.778234543278813">
        <ele>408.20001220703125</ele>
        <time>2019-03-22T22:11:56.590Z</time>
      </trkpt>
      <trkpt lat="42.99102955497801" lon="13.777988282963634">
        <ele>408.79998779296875</ele>
        <time>2019-03-22T22:11:58.329Z</time>
      </trkpt>
      <trkpt lat="42.991086300462484" lon="13.777837827801704">
        <ele>409.79998779296875</ele>
        <time>2019-03-22T22:12:00.071Z</time>
      </trkpt>
      <trkpt lat="42.991176741197705" lon="13.777617635205388">
        <ele>412.6000061035156</ele>
        <time>2019-03-22T22:12:01.818Z</time>
      </trkpt>
      <trkpt lat="42.99128260463476" lon="13.77738369628787">
        <ele>411.20001220703125</ele>
        <time>2019-03-22T22:12:03.570Z</time>
      </trkpt>
      <trkpt lat="42.99139550887048" lon="13.77715989947319">
        <ele>412.3999938964844</ele>
        <time>2019-03-22T22:12:05.327Z</time>
      </trkpt>
      <trkpt lat="42.991446470841765" lon="13.77707339823246">
        <ele>413.79998779296875</ele>
        <time>2019-03-22T22:12:07.086Z</time>
      </trkpt>
      <trkpt lat="42.99157328903675" lon="13.776869801804423">
        <ele>417.3999938964844</ele>
        <time>2019-03-22T22:12:08.850Z</time>
      </trkpt>
      <trkpt lat="42.99164378084242" lon="13.776737451553345">
        <ele>419.6000061035156</ele>
        <time>2019-03-22T22:12:10.617Z</time>
      </trkpt>
      <trkpt lat="42.991754338145256" lon="13.776526981964707">
        <ele>424.6000061035156</ele>
        <time>2019-03-22T22:12:12.389Z</time>
      </trkpt>
      <trkpt lat="42.99182139337063" lon="13.77638004720211">
        <ele>425.0</ele>
        <time>2019-03-22T22:12:14.164Z</time>
      </trkpt>
      <trkpt lat="42.991882245987654" lon="13.776137391105294">
        <ele>425.79998779296875</ele>
        <time>2019-03-22T22:12:15.944Z</time>
      </trkpt>
      <trkpt lat="42.99188559874892" lon="13.776095733046532">
        <ele>426.20001220703125</ele>
        <time>2019-03-22T22:12:17.724Z</time>
      </trkpt>
      <trkpt lat="42.991857938468456" lon="13.775846790522337">
        <ele>427.79998779296875</ele>
        <time>2019-03-22T22:12:19.509Z</time>
      </trkpt>
      <trkpt lat="42.99184679053724" lon="13.775805551558733">
        <ele>428.0</ele>
        <time>2019-03-22T22:12:21.295Z</time>
      </trkpt>
      <trkpt lat="42.99174268729985" lon="13.775570187717676">
        <ele>427.6000061035156</ele>
        <time>2019-03-22T22:12:23.086Z</time>
      </trkpt>
      <trkpt lat="42.99162014387548" lon="13.77538469620049">
        <ele>422.3999938964844</ele>
        <time>2019-03-22T22:12:24.882Z</time>
      </trkpt>
      <trkpt lat="42.99158493988216" lon="13.775313533842564">
        <ele>421.20001220703125</ele>
        <time>2019-03-22T22:12:26.679Z</time>
      </trkpt>
      <trkpt lat="42.99154604785144" lon="13.775067692622542">
        <ele>420.0</ele>
        <time>2019-03-22T22:12:28.481Z</time>
      </trkpt>
      <trkpt lat="42.991617461666465" lon="13.774850433692336">
        <ele>424.0</ele>
        <time>2019-03-22T22:12:30.287Z</time>
      </trkpt>
      <trkpt lat="42.99173547886312" lon="13.774623200297356">
        <ele>430.20001220703125</ele>
        <time>2019-03-22T22:12:32.098Z</time>
      </trkpt>
      <trkpt lat="42.99177076667547" lon="13.77455404959619">
        <ele>431.3999938964844</ele>
        <time>2019-03-22T22:12:33.911Z</time>
      </trkpt>
      <trkpt lat="42.99187880940735" lon="13.774329917505383">
        <ele>433.79998779296875</ele>
        <time>2019-03-22T22:12:35.729Z</time>
      </trkpt>
      <trkpt lat="42.99189146608114" lon="13.774296808987856">
        <ele>434.79998779296875</ele>
        <time>2019-03-22T22:12:37.548Z</time>
      </trkpt>
      <trkpt lat="42.99192658625543" lon="13.774106204509735">
        <ele>440.0</ele>
        <time>2019-03-22T22:12:39.370Z</time>
      </trkpt>
      <trkpt lat="42.991926753893495" lon="13.774063540622592">
        <ele>441.0</ele>
        <time>2019-03-22T22:12:41.193Z</time>
      </trkpt>
      <trkpt lat="42.99188124015927" lon="13.773823315277696">
        <ele>446.6000061035156</ele>
        <time>2019-03-22T22:12:43.021Z</time>
      </trkpt>
      <trkpt lat="42.99186640419066" lon="13.773784004151821">
        <ele>447.3999938964844</ele>
        <time>2019-03-22T22:12:44.849Z</time>
      </trkpt>
      <trkpt lat="42.991745956242085" lon="13.77356012351811">
        <ele>451.3999938964844</ele>
        <time>2019-03-22T22:12:46.683Z</time>
      </trkpt>
      <trkpt lat="42.99168761819601" lon="13.773491140455008">
        <ele>449.6000061035156</ele>
        <time>2019-03-22T22:12:48.519Z</time>
      </trkpt>
      <trkpt lat="42.99154495820403" lon="13.773324089124799">
        <ele>444.3999938964844</ele>
        <time>2019-03-22T22:12:50.359Z</time>
      </trkpt>
      <trkpt lat="42.99140565097332" lon="13.773109260946512">
        <ele>439.3999938964844</ele>
        <time>2019-03-22T22:12:52.205Z</time>
      </trkpt>
      <trkpt lat="42.99135586246848" lon="13.773013120517135">
        <ele>437.79998779296875</ele>
        <time>2019-03-22T22:12:54.053Z</time>
      </trkpt>
      <trkpt lat="42.99123994074762" lon="13.772762836888433">
        <ele>433.79998779296875</ele>
        <time>2019-03-22T22:12:55.906Z</time>
      </trkpt>
      <trkpt lat="42.99116735346615" lon="13.772612381726503">
        <ele>432.3999938964844</ele>
        <time>2019-03-22T22:12:57.763Z</time>
      </trkpt>
      <trkpt lat="42.991060903295875" lon="13.77234642393887">
        <ele>432.0</ele>
        <time>2019-03-22T22:12:59.625Z</time>
      </trkpt>
      <trkpt lat="42.99102016724646" lon="13.772178199142218">
        <ele>432.79998779296875</ele>
        <time>2019-03-22T22:13:01.490Z</time>
      </trkpt>
      <trkpt lat="42.99095897935331" lon="13.771894723176956">
        <ele>433.79998779296875</ele>
        <time>2019-03-22T22:13:03.361Z</time>
      </trkpt>
      <trkpt lat="42.99093022942543" lon="13.771598255261779">
        <ele>434.20001220703125</ele>
        <time>2019-03-22T22:13:05.237Z</time>
      </trkpt>
      <trkpt lat="42.99095286056399" lon="13.771348223090172">
        <ele>435.3999938964844</ele>
        <time>2019-03-22T22:13:07.118Z</time>
      </trkpt>
      <trkpt lat="42.990972055122256" lon="13.771228613331914">
        <ele>436.20001220703125</ele>
        <time>2019-03-22T22:13:09.001Z</time>
      </trkpt>
      <trkpt lat="42.991008097305894" lon="13.770960979163647">
        <ele>436.6000061035156</ele>
        <time>2019-03-22T22:13:10.889Z</time>
      </trkpt>
      <trkpt lat="42.99102737568319" lon="13.770818319171667">
        <ele>437.3999938964844</ele>
        <time>2019-03-22T22:13:12.780Z</time>
      </trkpt>
      <trkpt lat="42.99108328297734" lon="13.770505422726274">
        <ele>439.0</ele>
        <time>2019-03-22T22:13:14.677Z</time>
      </trkpt>
      <trkpt lat="42.991105914115906" lon="13.770437277853489">
        <ele>439.3999938964844</ele>
        <time>2019-03-22T22:13:16.575Z</time>
      </trkpt>
      <trkpt lat="42.991157630458474" lon="13.770179618149996">
        <ele>437.3999938964844</ele>
        <time>2019-03-22T22:13:18.478Z</time>
      </trkpt>
      <trkpt lat="42.99116978421807" lon="13.770090769976377">
        <ele>436.3999938964844</ele>
        <time>2019-03-22T22:13:20.383Z</time>
      </trkpt>
      <trkpt lat="42.99120440147817" lon="13.7698167655617">
        <ele>433.3999938964844</ele>
        <time>2019-03-22T22:13:22.293Z</time>
      </trkpt>
      <trkpt lat="42.991238348186016" lon="13.769543934613466">
        <ele>432.20001220703125</ele>
        <time>2019-03-22T22:13:24.208Z</time>
      </trkpt>
      <trkpt lat="42.991247568279505" lon="13.769456511363387">
        <ele>432.3999938964844</ele>
        <time>2019-03-22T22:13:26.125Z</time>
      </trkpt>
      <trkpt lat="42.99128822050989" lon="13.769164318218827">
        <ele>426.6000061035156</ele>
        <time>2019-03-22T22:13:28.048Z</time>
      </trkpt>
      <trkpt lat="42.99139232374728" lon="13.768889224156737">
        <ele>422.0</ele>
        <time>2019-03-22T22:13:29.976Z</time>
      </trkpt>
      <trkpt lat="42.991585694253445" lon="13.768749833106995">
        <ele>425.6000061035156</ele>
        <time>2019-03-22T22:13:31.910Z</time>
      </trkpt>
      <trkpt lat="42.991717206314206" lon="13.768698535859585">
        <ele>428.20001220703125</ele>
        <time>2019-03-22T22:13:33.847Z</time>
      </trkpt>
      <trkpt lat="42.99192164093256" lon="13.768642963841558">
        <ele>429.6000061035156</ele>
        <time>2019-03-22T22:13:35.789Z</time>
      </trkpt>
      <trkpt lat="42.992041669785976" lon="13.768629468977451">
        <ele>432.20001220703125</ele>
        <time>2019-03-22T22:13:37.735Z</time>
      </trkpt>
      <trkpt lat="42.99216748215258" lon="13.768648412078619">
        <ele>434.20001220703125</ele>
        <time>2019-03-22T22:13:39.684Z</time>
      </trkpt>
      <trkpt lat="42.99233109690249" lon="13.76871932297945">
        <ele>436.20001220703125</ele>
        <time>2019-03-22T22:13:41.637Z</time>
      </trkpt>
      <trkpt lat="42.992421705275774" lon="13.768765591084957">
        <ele>437.20001220703125</ele>
        <time>2019-03-22T22:13:43.593Z</time>
      </trkpt>
      <trkpt lat="42.99261700361967" lon="13.768860474228859">
        <ele>439.20001220703125</ele>
        <time>2019-03-22T22:13:45.554Z</time>
      </trkpt>
      <trkpt lat="42.99265648238361" lon="13.76887807622552">
        <ele>439.3999938964844</ele>
        <time>2019-03-22T22:13:47.516Z</time>
      </trkpt>
      <trkpt lat="42.99284230917692" lon="13.768950998783112">
        <ele>440.6000061035156</ele>
        <time>2019-03-22T22:13:49.483Z</time>
      </trkpt>
      <trkpt lat="42.99287659116089" lon="13.768952591344714">
        <ele>441.0</ele>
        <time>2019-03-22T22:13:51.451Z</time>
      </trkpt>
      <trkpt lat="42.99309418536723" lon="13.76894605346024">
        <ele>444.6000061035156</ele>
        <time>2019-03-22T22:13:53.424Z</time>
      </trkpt>
      <trkpt lat="42.993276827037334" lon="13.768892157822847">
        <ele>449.3999938964844</ele>
        <time>2019-03-22T22:13:55.402Z</time>
      </trkpt>
      <trkpt lat="42.99331027083099" lon="13.768882770091295">
        <ele>450.20001220703125</ele>
        <time>2019-03-22T22:13:57.381Z</time>
      </trkpt>
      <trkpt lat="42.993513783439994" lon="13.768805237486959">
        <ele>454.20001220703125</ele>
        <time>2019-03-22T22:13:59.365Z</time>
      </trkpt>
      <trkpt lat="42.99364320002496" lon="13.768753940239549">
        <ele>455.3999938964844</ele>
        <time>2019-03-22T22:14:01.352Z</time>
      </trkpt>
      <trkpt lat="42.99383020028472" lon="13.768649166449904">
        <ele>455.79998779296875</ele>
        <time>2019-03-22T22:14:03.344Z</time>
      </trkpt>
      <trkpt lat="42.99392458051443" lon="13.768590660765767">
        <ele>456.20001220703125</ele>
        <time>2019-03-22T22:14:05.339Z</time>
      </trkpt>
      <trkpt lat="42.994089955464005" lon="13.768457556143403">
        <ele>458.0</ele>
        <time>2019-03-22T22:14:07.339Z</time>
      </trkpt>
      <trkpt lat="42.99411937594414" lon="13.768430901691318">
        <ele>458.3999938964844</ele>
        <time>2019-03-22T22:14:09.340Z</time>
      </trkpt>
      <trkpt lat="42.99428600817919" lon="13.768245493993163">
        <ele>461.3999938964844</ele>
        <time>2019-03-22T22:14:11.346Z</time>
      </trkpt>
      <trkpt lat="42.99434183165431" lon="13.768177600577474">
        <ele>462.0</ele>
        <time>2019-03-22T22:14:13.354Z</time>
      </trkpt>
      <trkpt lat="42.994482731446624" lon="13.767978614196181">
        <ele>463.79998779296875</ele>
        <time>2019-03-22T22:14:15.367Z</time>
      </trkpt>
      <trkpt lat="42.99456303007901" lon="13.767863027751446">
        <ele>462.79998779296875</ele>
        <time>2019-03-22T22:14:17.383Z</time>
      </trkpt>
      <trkpt lat="42.99468817189336" lon="13.767666220664978">
        <ele>460.3999938964844</ele>
        <time>2019-03-22T22:14:19.404Z</time>
      </trkpt>
      <trkpt lat="42.994764279574156" lon="13.76750260591507">
        <ele>458.0</ele>
        <time>2019-03-22T22:14:21.429Z</time>
      </trkpt>
      <trkpt lat="42.994814990088344" lon="13.767267996445298">
        <ele>456.6000061035156</ele>
        <time>2019-03-22T22:14:23.458Z</time>
      </trkpt>
      <trkpt lat="42.99478707835078" lon="13.766997428610921">
        <ele>457.79998779296875</ele>
        <time>2019-03-22T22:14:25.492Z</time>
      </trkpt>
      <trkpt lat="42.9947223700583" lon="13.766719568520784">
        <ele>459.0</ele>
        <time>2019-03-22T22:14:27.532Z</time>
      </trkpt>
      <trkpt lat="42.9946964699775" lon="13.766609849408269">
        <ele>459.0</ele>
        <time>2019-03-22T22:14:29.574Z</time>
      </trkpt>
      <trkpt lat="42.994620529934764" lon="13.76632067374885">
        <ele>461.20001220703125</ele>
        <time>2019-03-22T22:14:31.621Z</time>
      </trkpt>
      <trkpt lat="42.99459203146398" lon="13.766212211921811">
        <ele>462.79998779296875</ele>
        <time>2019-03-22T22:14:33.671Z</time>
      </trkpt>
      <trkpt lat="42.994533106684685" lon="13.765973076224327">
        <ele>465.0</ele>
        <time>2019-03-22T22:14:35.725Z</time>
      </trkpt>
      <trkpt lat="42.994500836357474" lon="13.76585598103702">
        <ele>464.3999938964844</ele>
        <time>2019-03-22T22:14:37.782Z</time>
      </trkpt>
      <trkpt lat="42.994430009275675" lon="13.765585161745548">
        <ele>463.3999938964844</ele>
        <time>2019-03-22T22:14:39.844Z</time>
      </trkpt>
      <trkpt lat="42.99439623020589" lon="13.765487344935536">
        <ele>463.0</ele>
        <time>2019-03-22T22:14:41.908Z</time>
      </trkpt>
      <trkpt lat="42.994384998455644" lon="13.765435544773936">
        <ele>462.79998779296875</ele>
        <time>2019-03-22T22:14:43.973Z</time>
      </trkpt>
      <trkpt lat="42.99431601539254" lon="13.765198588371277">
        <ele>463.20001220703125</ele>
        <time>2019-03-22T22:14:46.043Z</time>
      </trkpt>
      <trkpt lat="42.99427444115281" lon="13.764934642240405">
        <ele>459.20001220703125</ele>
        <time>2019-03-22T22:14:48.118Z</time>
      </trkpt>
      <trkpt lat="42.99427620135248" lon="13.764889799058437">
        <ele>458.6000061035156</ele>
        <time>2019-03-22T22:14:50.193Z</time>
      </trkpt>
      <trkpt lat="42.99430419690907" lon="13.764621997252107">
        <ele>454.79998779296875</ele>
        <time>2019-03-22T22:14:52.273Z</time>
      </trkpt>
      <trkpt lat="42.994327833876014" lon="13.764374647289515">
        <ele>453.0</ele>
        <time>2019-03-22T22:14:54.358Z</time>
      </trkpt>
      <trkpt lat="42.99434384331107" lon="13.764268700033426">
        <ele>452.0</ele>
        <time>2019-03-22T22:14:56.445Z</time>
      </trkpt>
      <trkpt lat="42.99438977614045" lon="13.763987068086863">
        <ele>449.0</ele>
        <time>2019-03-22T22:14:58.537Z</time>
      </trkpt>
      <trkpt lat="42.99441399984062" lon="13.763869134709239">
        <ele>448.0</ele>
        <time>2019-03-22T22:15:00.632Z</time>
      </trkpt>
      <trkpt lat="42.994474433362484" lon="13.76358725130558">
        <ele>446.6000061035156</ele>
        <time>2019-03-22T22:15:02.732Z</time>
      </trkpt>
      <trkpt lat="42.99450444057584" lon="13.763415003195405">
        <ele>446.6000061035156</ele>
        <time>2019-03-22T22:15:04.835Z</time>
      </trkpt>
      <trkpt lat="42.99456202425063" lon="13.763140328228474">
        <ele>447.20001220703125</ele>
        <time>2019-03-22T22:15:06.944Z</time>
      </trkpt>
      <trkpt lat="42.9945738427341" lon="13.76304435543716">
        <ele>447.20001220703125</ele>
        <time>2019-03-22T22:15:09.054Z</time>
      </trkpt>
      <trkpt lat="42.99459647387266" lon="13.762900102883577">
        <ele>446.79998779296875</ele>
        <time>2019-03-22T22:15:11.167Z</time>
      </trkpt>
    </trkseg>
  </trk>
</gpx>
